AurieDatheL Games - Total: 3112
1 2 3 4
Rank Song Name Score PGAMB Combo Time
1,073 Parousia 458,525 295 - 1 - 0 - 0 - 0 296 2023-06-10 21:26:56
1,112 Parousia 4,650 3 - 0 - 0 - 0 - 0 3 2023-06-10 21:24:18
291 Parousia [PB] 1,581,045 1,022 - 1 - 0 - 1 - 1 1,019 2023-06-10 21:22:20
1,067 Parousia [SR] 511,390 338 - 0 - 0 - 21 - 0 332 2023-06-10 21:20:05
29 PEACE BREAKER 4,303,980 3,563 - 53 - 1 - 4 - 3 2,331 2023-06-10 00:10:35
1,339 Staple on Smile [SR] 459,165 324 - 1 - 0 - 1 - 0 281 2023-06-10 00:06:37
72 Extratone Firestorm [SR] 2,239,415 2,947 - 322 - 9 - 56 - 6 547 2023-06-10 00:05:48
1 Extratone Pirates (Drunk Optimus Remix) [AAA] [FC] [SR] 2,914,000 1,880 - 0 - 0 - 0 - 0 1,880 2023-06-10 00:02:41
1 Extratone Pirates [AAA] [FC] [PB] 2,247,500 1,450 - 0 - 0 - 0 - 0 1,450 2023-06-10 00:00:00
31 Extratone Pirates [FC] [PB] 2,247,225 1,449 - 1 - 0 - 0 - 0 1,450 2023-06-09 23:57:30
41 Extratone Pirates [FC] [PB] 2,247,205 1,449 - 1 - 0 - 0 - 1 1,450 2023-06-09 23:55:32
1,927 Extratone Pirates 97,305 63 - 1 - 0 - 2 - 0 63 2023-06-09 23:53:49
84 Extratone Pirates [PB] 2,218,775 1,446 - 3 - 0 - 1 - 2 1,423 2023-06-09 23:53:23
1,375 Extratone Pirates [SR] 812,235 526 - 1 - 0 - 14 - 0 527 2023-06-09 23:51:42
1 Keep Shredding, Little Man! [AAA] [FC] [PB] 3,792,850 2,447 - 0 - 0 - 0 - 0 2,447 2023-06-09 23:50:03
18 Keep Shredding, Little Man! [FC] [SR] 3,792,575 2,446 - 1 - 0 - 0 - 0 2,447 2023-06-09 23:38:22
1 Makiba [AAA] [FC] [PB] 2,397,850 1,547 - 0 - 0 - 0 - 0 1,547 2023-06-09 23:33:14
3,264 Makiba [SR] 30,690 20 - 0 - 0 - 1 - 0 20 2023-06-09 23:31:02
1 kiss the sexy robot?? ultimate championship 201X!!! [AAA] [FC] [SR] 2,369,950 1,529 - 0 - 0 - 0 - 0 1,529 2023-06-09 23:29:46
1 Apologize [AAA] [FC] [PB] 3,045,750 1,965 - 0 - 0 - 0 - 0 1,965 2023-06-09 20:52:07
82 Apologize 2,107,240 1,759 - 4 - 0 - 1 - 0 1,139 2023-06-09 20:49:47
40 Apologize 2,643,240 1,958 - 6 - 0 - 1 - 0 1,565 2023-06-09 20:47:58
152 Apologize 1,182,145 891 - 14 - 1 - 9 - 1 691 2023-06-09 20:45:51
1 Enigma [AAA] [FC] [PB] 1,427,550 921 - 0 - 0 - 0 - 0 921 2023-06-09 20:44:48
142 Enigma 142,325 91 - 1 - 0 - 0 - 0 92 2023-06-09 20:43:00
116 Enigma 1,033,830 837 - 4 - 0 - 8 - 7 575 2023-06-09 20:42:39
142 Enigma 70,750 44 - 2 - 0 - 0 - 0 46 2023-06-09 20:41:08
807 We Want To Run 930 1 - 0 - 0 - 2 - 0 1 2023-06-09 20:40:35
31 We Want To Run [FC] [SR] 4,338,250 2,789 - 12 - 0 - 0 - 0 2,801 2023-06-09 09:28:12
16 Tool-Assisted Speedcore (TQBF Frame Advance RMX) [FC] 5,498,475 3,540 - 9 - 0 - 0 - 0 3,549 2023-06-09 09:21:55
961 Tool-Assisted Speedcore (TQBF Frame Advance RMX) 97,630 63 - 0 - 0 - 0 - 1 63 2023-06-09 09:17:36
1 safe_state [AAA] [FC] [PB] 2,821,000 1,820 - 0 - 0 - 0 - 0 1,820 2023-06-09 09:16:23
166 safe_state 9,280 6 - 0 - 0 - 0 - 1 6 2023-06-09 09:13:52
24 Apologize [FC] [PB] 3,045,475 1,964 - 1 - 0 - 0 - 0 1,965 2023-06-09 09:13:02
226 Apologize 62,000 40 - 0 - 0 - 0 - 0 40 2023-06-09 09:10:44
1 Boulafacet [AAA] [FC] [PB] 2,338,950 1,509 - 0 - 0 - 0 - 0 1,509 2023-06-09 09:09:48
166 Boulafacet 35,650 23 - 0 - 0 - 0 - 0 23 2023-06-09 09:07:44
166 Boulafacet 25,525 14 - 3 - 0 - 0 - 0 17 2023-06-09 09:07:33
167 Boulafacet 2,585 0 - 3 - 0 - 4 - 0 3 2023-06-09 09:07:23
167 Boulafacet 15,295 8 - 3 - 0 - 3 - 0 11 2023-06-09 09:07:16
158 Boulafacet 549,595 355 - 1 - 0 - 3 - 0 355 2023-06-09 09:07:04
164 safe_state 36,890 24 - 0 - 0 - 1 - 0 24 2023-06-08 09:42:53
161 safe_state [SR] 153,450 99 - 0 - 0 - 0 - 0 99 2023-06-08 09:42:44
1 WANDERLUST [AAA] [FC] [SR] 2,701,650 1,743 - 0 - 0 - 0 - 0 1,743 2023-06-08 09:42:12
1 LET'S JUMP [AAA] [FC] [PB] 7,750,000 5,000 - 0 - 0 - 0 - 0 5,000 2023-06-08 09:39:08
51 LET'S JUMP 4,392,425 2,837 - 1 - 0 - 20 - 0 2,838 2023-06-08 09:31:52
74 LET'S JUMP 74,400 48 - 0 - 0 - 0 - 0 48 2023-06-08 09:27:42
11 LET'S JUMP [FC] [PB] 7,748,625 4,995 - 5 - 0 - 0 - 0 5,000 2023-06-08 09:27:00
71 LET'S JUMP 519,230 339 - 0 - 0 - 20 - 1 339 2023-06-08 09:19:50
182 Apologize [PB] 1,036,125 670 - 3 - 0 - 20 - 0 673 2023-06-08 09:09:51
227 Apologize [PB] 29,450 19 - 0 - 0 - 0 - 0 19 2023-06-08 09:08:57
228 Apologize [SR] 3,060 7 - 0 - 0 - 9 - 0 2 2023-06-08 09:08:46
21 Mdrqnxtagon 2,040,795 1,936 - 7 - 0 - 3 - 0 975 2023-06-08 02:43:01
54 Mdrqnxtagon 1,694,415 1,905 - 23 - 0 - 18 - 4 646 2023-06-08 02:37:37
173 Mdrqnxtagon 25,280 22 - 0 - 0 - 22 - 0 20 2023-06-08 02:35:18
36 Jamais Vu [FC] 3,088,600 1,991 - 2 - 0 - 0 - 0 1,993 2023-06-08 02:33:33
1 Chronomia [AAA] [FC] [PB] 3,392,950 2,189 - 0 - 0 - 0 - 0 2,189 2023-06-08 02:30:03
557 Chronomia [SR] 68,200 44 - 0 - 0 - 0 - 0 44 2023-06-08 02:27:22
28 Boulafacet [SR] 1,757,090 1,508 - 0 - 0 - 1 - 0 928 2023-06-08 02:26:28
15 LET'S JUMP [SR] 5,671,035 4,990 - 5 - 2 - 3 - 1 2,926 2023-06-08 02:22:45
1 Traveler ~Stand Aloof~ [Oni] [AAA] [FC] [SR] 2,430,400 1,568 - 0 - 0 - 0 - 0 1,568 2023-06-08 02:13:21
28 Enigma [FC] [PB] 1,427,275 920 - 1 - 0 - 0 - 0 921 2023-06-08 02:10:41
45 Enigma [PB] 970,570 916 - 4 - 0 - 1 - 1 466 2023-06-08 02:09:03
141 Enigma [PB] 68,180 44 - 0 - 0 - 0 - 1 44 2023-06-08 02:07:21
37 brute force [PB] 3,130,695 3,252 - 29 - 0 - 6 - 1 1,336 2023-06-07 06:40:39
37 brute force [PB] 2,922,495 3,252 - 28 - 1 - 6 - 0 1,128 2023-06-07 06:36:16
2,194 Fushigi Usagi Milk Tei 936,925 602 - 3 - 0 - 0 - 0 605 2023-06-07 06:29:04
76 OWA Raged In Vegas (Fuck Bees) [PB] 3,935,905 3,007 - 11 - 0 - 3 - 2 2,280 2023-06-07 06:27:29
158 Revenge (ReeK's "Dude, What's A Genre?" Remix) 1,038,975 702 - 4 - 1 - 4 - 2 653 2023-06-07 06:23:20
18 Revenge (ReeK's "Dude, What's A Genre?" Remix) [SR] 3,306,985 3,819 - 21 - 0 - 4 - 0 1,202 2023-06-07 06:21:40
16,000 Reluctantly Accepting Temporary Overexhaustion 445,590 297 - 2 - 0 - 1 - 0 282 2023-06-07 06:16:53
23,595 Reluctantly Accepting Temporary Overexhaustion 66,375 42 - 1 - 0 - 0 - 0 43 2023-06-07 06:16:32
122 Reluctantly Accepting Temporary Overexhaustion [PB] 2,129,165 1,570 - 29 - 0 - 1 - 0 1,258 2023-06-07 06:15:24
23,889 Reluctantly Accepting Temporary Overexhaustion 55,525 35 - 1 - 0 - 0 - 0 36 2023-06-07 06:13:48
23,302 Reluctantly Accepting Temporary Overexhaustion [PB] 77,225 49 - 1 - 0 - 0 - 0 50 2023-06-07 06:13:43
24,379 Reluctantly Accepting Temporary Overexhaustion [SR] 45,090 26 - 4 - 0 - 1 - 0 30 2023-06-07 06:13:34
50 Hello (BPM) 2021 [PB] 2,183,255 2,603 - 137 - 0 - 13 - 2 718 2023-06-07 06:12:35
819 Hello (BPM) 2021 578,960 369 - 13 - 1 - 2 - 0 373 2023-06-07 06:10:15
66 Hello (BPM) 2021 3,069,740 2,526 - 210 - 0 - 17 - 2 1,628 2023-06-07 06:09:20
295 Hello (BPM) 2021 1,978,785 1,854 - 96 - 1 - 27 - 0 941 2023-06-07 06:05:45
19 PEACE BREAKER [PB] 4,193,325 3,591 - 26 - 1 - 3 - 0 2,212 2023-06-07 06:03:32
116 Mario-chi Survivor [Oni] 2,917,930 1,983 - 4 - 0 - 22 - 0 1,833 2023-06-07 05:59:37
445 Tool-Assisted Speedcore (TQBF Frame Advance RMX) 1,498,575 966 - 1 - 0 - 0 - 0 967 2023-06-07 05:57:09
978 Tool-Assisted Speedcore (TQBF Frame Advance RMX) 26,350 17 - 0 - 0 - 0 - 0 17 2023-06-07 05:55:54
314 Tool-Assisted Speedcore (TQBF Frame Advance RMX) 3,715,075 2,396 - 1 - 0 - 0 - 0 2,397 2023-06-07 05:55:37
448 Tool-Assisted Speedcore (TQBF Frame Advance RMX) 1,481,525 955 - 1 - 0 - 0 - 0 956 2023-06-07 05:53:06
1,015 Tool-Assisted Speedcore (TQBF Frame Advance RMX) 35 0 - 1 - 0 - 4 - 0 1 2023-06-07 05:51:55
988 Tool-Assisted Speedcore (TQBF Frame Advance RMX) 13,950 9 - 0 - 0 - 0 - 0 9 2023-06-07 05:51:48
954 Tool-Assisted Speedcore (TQBF Frame Advance RMX) 118,040 77 - 0 - 0 - 1 - 0 76 2023-06-07 05:51:44
959 Tool-Assisted Speedcore (TQBF Frame Advance RMX) 98,200 65 - 0 - 0 - 5 - 0 64 2023-06-07 05:51:25
311 Tool-Assisted Speedcore (TQBF Frame Advance RMX) 3,729,990 2,408 - 2 - 0 - 16 - 0 2,410 2023-06-07 05:51:09
439 Tool-Assisted Speedcore (TQBF Frame Advance RMX) 1,574,315 1,021 - 1 - 0 - 21 - 0 1,019 2023-06-07 05:48:30
313 Tool-Assisted Speedcore (TQBF Frame Advance RMX) 3,720,450 2,401 - 4 - 0 - 20 - 0 2,405 2023-06-07 05:47:08
14 Tool-Assisted Speedcore (TQBF Frame Advance RMX) 4,398,405 3,544 - 3 - 0 - 2 - 0 2,449 2023-06-07 05:44:28
668 Powerflux 2,266,370 1,451 - 13 - 1 - 1 - 0 1,465 2023-06-07 05:39:21
38 Powerflux [PB] 5,018,945 4,066 - 13 - 0 - 3 - 0 2,780 2023-06-07 05:37:19
1,077 Powerflux 632,380 408 - 0 - 0 - 0 - 1 408 2023-06-07 05:33:38
996 Powerflux 828,660 541 - 0 - 0 - 19 - 0 537 2023-06-07 05:32:10
1 Rave 7 [AAA] [FC] [PB] 2,326,550 1,501 - 0 - 0 - 0 - 0 1,501 2023-06-07 05:29:50
140 Rave 7 [PB] 1,814,825 1,497 - 3 - 0 - 1 - 2 991 2023-06-07 05:27:47
6,847 Rave 7 143,625 54 - 47 - 0 - 0 - 0 101 2023-06-07 05:25:58
7,729 Rave 7 10,230 8 - 0 - 0 - 7 - 0 8 2023-06-07 05:25:45
91 Mdrqnxtagon 2,618,315 1,694 - 15 - 0 - 21 - 0 1,689 2023-06-07 05:24:53
114 Mdrqnxtagon 1,276,825 822 - 7 - 0 - 20 - 0 829 2023-06-07 05:22:50
131 Mdrqnxtagon 707,420 461 - 10 - 0 - 22 - 3 458 2023-06-07 05:21:53
127 Mdrqnxtagon 738,180 479 - 2 - 0 - 22 - 0 481 2023-06-07 05:21:16
20 Mdrqnxtagon 2,911,415 1,934 - 11 - 0 - 1 - 0 1,845 2023-06-07 05:20:27
127 Mdrqnxtagon 716,315 481 - 1 - 0 - 21 - 0 458 2023-06-07 05:18:15
16 Mdrqnxtagon [PB] 2,003,635 1,937 - 7 - 0 - 2 - 1 937 2023-06-07 05:17:30
173 Mdrqnxtagon 41,850 27 - 0 - 0 - 0 - 0 27 2023-06-07 05:15:16
1 All i wanna do is touch your powerpoints [AAA] [FC] [PB] 2,196,350 1,417 - 0 - 0 - 0 - 0 1,417 2023-06-07 05:13:24
135 All i wanna do is touch your powerpoints [FC] [PB] 2,195,250 1,413 - 4 - 0 - 0 - 0 1,417 2023-06-07 05:11:05
3,786 All i wanna do is touch your powerpoints [PB] 822,775 530 - 1 - 0 - 0 - 0 531 2023-06-07 05:08:48
4,447 All i wanna do is touch your powerpoints [SR] 274,640 178 - 0 - 0 - 4 - 1 178 2023-06-07 05:07:47
1,567 All i wanna do is touch your powerpoints [1.6x] 1,203,700 1,328 - 70 - 0 - 19 - 3 460 2023-06-07 05:07:07
5,038 All i wanna do is touch your powerpoints [1.6x] 83,765 56 - 1 - 0 - 1 - 0 53 2023-06-07 05:05:39
1 LeaF Style Super Shredder 3 [AAA] [FC] [PB] 2,365,300 1,526 - 0 - 0 - 0 - 0 1,526 2023-06-07 05:02:35
31 LeaF Style Super Shredder 3 [SR] 1,926,305 1,523 - 1 - 0 - 2 - 0 1,089 2023-06-07 05:00:19
1 Amnehilesie [AAA] [FC] [PB] 2,996,150 1,933 - 0 - 0 - 0 - 0 1,933 2023-06-07 04:57:45
374 Amnehilesie 60,450 39 - 0 - 0 - 0 - 0 39 2023-06-07 04:55:10
27 Amnehilesie [SR] 2,994,270 1,932 - 0 - 0 - 1 - 1 1,932 2023-06-07 04:54:30
1 Jamais Vu [AAA] [FC] [PB] 3,089,150 1,993 - 0 - 0 - 0 - 0 1,993 2023-06-07 04:49:34
598 Jamais Vu 2,557,545 1,664 - 9 - 0 - 23 - 0 1,647 2023-06-07 04:46:24
45 Jamais Vu [FC] [SR] 3,088,325 1,990 - 3 - 0 - 0 - 0 1,993 2023-06-07 04:43:56
78 eXXXcaliborg.Error [SR] 1,391,465 1,310 - 219 - 6 - 63 - 3 630 2023-06-07 04:38:02
1 hehenonomohe [AAA] [FC] [SR] 350,300 226 - 0 - 0 - 0 - 0 226 2023-06-07 04:35:07
1 sans. [AAA] [FC] [SR] 382,850 247 - 0 - 0 - 0 - 0 247 2023-06-07 04:34:02
1 Time To Sleep [AAA] [FC] [SR] 809,100 522 - 0 - 0 - 0 - 0 522 2023-06-07 04:32:36
1 Theme of the Dragoon Knights [AAA] [FC] [SR] 292,950 189 - 0 - 0 - 0 - 0 189 2023-06-07 04:31:23
1 Ninja Turtles Theme [AAA] [FC] [SR] 503,750 325 - 0 - 0 - 0 - 0 325 2023-06-07 04:29:58
1 Bibbidi Poopidi Scoop [AAA] [FC] [PB] 872,650 563 - 0 - 0 - 0 - 0 563 2023-06-07 04:28:52
1,703 Bibbidi Poopidi Scoop [SR] 182,075 115 - 3 - 0 - 0 - 0 118 2023-06-07 04:28:00
1 Sybian Rock [AAA] [FC] [PB] 835,450 539 - 0 - 0 - 0 - 0 539 2023-06-07 04:27:28
194 Sybian Rock [SR] 10,850 11 - 0 - 0 - 20 - 0 11 2023-06-07 04:26:39
1 Famouz [AAA] [FC] [PB] 607,600 392 - 0 - 0 - 0 - 0 392 2023-06-07 04:26:17
60,709 Famouz [SR] 23,250 15 - 0 - 0 - 0 - 0 15 2023-06-07 04:25:27
1 Chiyeko melancholy [AAA] [FC] [SR] 128,650 83 - 0 - 0 - 0 - 0 83 2023-06-07 04:25:08
1 MG1 [AAA] [FC] [SR] 198,400 128 - 0 - 0 - 0 - 0 128 2023-06-07 04:23:59
1 THE LITTLE MERMAID [AAA] [FC] [SR] 713,000 460 - 0 - 0 - 0 - 0 460 2023-06-07 04:22:58
274 Bridge 7,750 5 - 0 - 0 - 0 - 0 5 2023-06-07 04:21:44
1 Bridge [AAA] [FC] [SR] 570,400 368 - 0 - 0 - 0 - 0 368 2023-06-07 04:21:24
1 Teh Tricky Techno [AAA] [FC] [PB] 733,150 473 - 0 - 0 - 0 - 0 473 2023-06-07 04:20:06
20,227 Teh Tricky Techno 21,700 14 - 0 - 0 - 0 - 0 14 2023-06-07 04:19:11
16,549 Teh Tricky Techno [SR] 165,575 106 - 1 - 0 - 0 - 0 107 2023-06-07 04:19:07
22,418 Teh Tricky Techno [SR] 0 1 - 0 - 1 - 10 - 2 2 2023-06-07 04:16:30
1 In The Wind [AAA] [FC] [PB] 643,250 415 - 0 - 0 - 0 - 0 415 2023-06-07 04:15:32
5,394 In The Wind 32,550 21 - 0 - 0 - 0 - 0 21 2023-06-07 04:14:41
1,061 In The Wind [SR] 519,240 402 - 2 - 0 - 11 - 0 301 2023-06-07 04:14:17
9,335 Eclipse (Solar) 1,017,805 648 - 11 - 0 - 2 - 0 659 2023-06-07 04:12:43
173 Mdrqnxtagon 0 0 - 0 - 0 - 3 - 2 0 2023-06-06 09:44:54
1 Eclipse (Luna) [AAA] [FC] [PB] 1,777,850 1,147 - 0 - 0 - 0 - 0 1,147 2023-06-06 09:42:07
1,025 Eclipse (Luna) 1,224,565 796 - 1 - 0 - 21 - 0 793 2023-06-06 09:40:14
1,206 Eclipse (Luna) 483,805 314 - 1 - 0 - 7 - 0 313 2023-06-06 09:37:59
1,021 Eclipse (Luna) [SR] 1,241,275 804 - 1 - 0 - 20 - 0 805 2023-06-06 09:37:02
1 Eclipse (Solar) [AAA] [FC] [PB] 2,239,750 1,445 - 0 - 0 - 0 - 0 1,445 2023-06-06 09:35:19
67 Eclipse (Solar) [FC] [PB] 2,239,475 1,444 - 1 - 0 - 0 - 0 1,445 2023-06-06 09:33:20
12,689 Eclipse (Solar) 570,395 371 - 1 - 0 - 3 - 0 367 2023-06-06 09:31:26
144 Eclipse (Solar) [PB] 1,686,340 1,442 - 2 - 0 - 1 - 0 893 2023-06-06 09:30:23
11,994 Eclipse (Solar) [SR] 650,725 419 - 1 - 0 - 0 - 0 420 2023-06-06 09:28:28
1 Eclipse [AAA] [FC] [SR] 683,550 441 - 0 - 0 - 0 - 0 441 2023-06-06 09:27:33
1 Skate or Die 2 [AAA] [FC] [SR] 257,300 166 - 0 - 0 - 0 - 0 166 2023-06-06 09:26:37
1 Dr. Mario Pt. 1 [AAA] [FC] [PB] 358,050 231 - 0 - 0 - 0 - 0 231 2023-06-06 09:23:35
16,638 Dr. Mario Pt. 1 [SR] 4,375 2 - 1 - 0 - 0 - 0 3 2023-06-06 09:22:49
1 /mu/tant corecore [AAA] [FC] [PB] 784,300 506 - 0 - 0 - 0 - 0 506 2023-06-06 09:19:25
980 /mu/tant corecore 53,975 34 - 1 - 0 - 0 - 0 35 2023-06-06 09:18:41
163 /mu/tant corecore 511,305 503 - 1 - 0 - 2 - 0 235 2023-06-06 09:16:23
977 /mu/tant corecore 63,275 40 - 1 - 0 - 0 - 0 41 2023-06-06 09:15:39
979 /mu/tant corecore 54,230 35 - 0 - 0 - 0 - 1 35 2023-06-06 09:15:31
979 /mu/tant corecore 60,175 38 - 1 - 0 - 0 - 0 39 2023-06-06 09:15:24
98 /mu/tant corecore [FC] [PB] 783,750 504 - 2 - 0 - 0 - 0 506 2023-06-06 09:00:04
981 /mu/tant corecore [SR] 39,635 22 - 4 - 1 - 2 - 0 27 2023-06-06 08:58:19
1 Thundersnail [AAA] [FC] [SR] 998,200 644 - 0 - 0 - 0 - 0 644 2023-06-06 08:46:28
1 Pollyanna [AAA] [FC] [SR] 159,650 103 - 0 - 0 - 0 - 0 103 2023-06-06 08:45:24
1 Pollyanna Rocks Your World [AAA] [FC] [PB] 2,332,750 1,505 - 0 - 0 - 0 - 0 1,505 2023-06-06 08:44:22
84 Pollyanna Rocks Your World [FC] [PB] 2,332,475 1,504 - 1 - 0 - 0 - 0 1,505 2023-06-06 08:41:56
335 Pollyanna Rocks Your World [PB] 1,236,040 800 - 2 - 0 - 21 - 0 802 2023-06-06 08:39:37
340 Pollyanna Rocks Your World [SR] 1,135,565 736 - 1 - 0 - 21 - 0 737 2023-06-06 08:38:11
1 With a Cherry On Top [AAA] [FC] [SR] 384,400 248 - 0 - 0 - 0 - 0 248 2023-06-06 08:36:42
1 Unborn Baby [AAA] [FC] [SR] 695,950 449 - 0 - 0 - 0 - 0 449 2023-06-06 08:35:43
1 grind1 [AAA] [FC] [PB] 798,250 515 - 0 - 0 - 0 - 0 515 2023-06-06 08:34:05
696 grind1 [SR] 83,140 59 - 0 - 0 - 1 - 0 51 2023-06-06 08:33:19
1 grind4 [AAA] [FC] [SR] 1,049,350 677 - 0 - 0 - 0 - 0 677 2023-06-06 08:33:01
1 grind2 v2 [AAA] [FC] [SR] 1,472,500 950 - 0 - 0 - 0 - 0 950 2023-06-06 08:32:02
1 grind2 [AAA] [FC] [PB] 1,360,900 878 - 0 - 0 - 0 - 0 878 2023-06-06 08:30:31
4,214 grind2 114,425 73 - 1 - 0 - 0 - 0 74 2023-06-06 08:29:12
4,266 grind2 97,550 58 - 6 - 0 - 0 - 0 64 2023-06-06 08:28:59
74 grind2 [FC] [SR] 1,360,350 876 - 2 - 0 - 0 - 0 878 2023-06-06 08:28:46
1 My Catchy Lil Bassline [AAA] [FC] [SR] 382,850 247 - 0 - 0 - 0 - 0 247 2023-06-06 08:27:12
1 Balloon Fight [Standard] [AAA] [FC] [SR] 609,150 393 - 0 - 0 - 0 - 0 393 2023-06-06 08:26:14
1 Sikertelenseg [AAA] [FC] [SR] 139,500 90 - 0 - 0 - 0 - 0 90 2023-06-06 08:24:58
1 Define [AAA] [FC] [SR] 392,150 253 - 0 - 0 - 0 - 0 253 2023-06-06 08:24:02
1 PADORU / PADORU [AAA] [FC] [SR] 426,250 275 - 0 - 0 - 0 - 0 275 2023-06-06 08:22:53
1 Brooks Wuz Here [AAA] [FC] [PB] 424,700 274 - 0 - 0 - 0 - 0 274 2023-06-06 08:22:04
15,723 Brooks Wuz Here [SR] 48,980 32 - 0 - 0 - 2 - 0 32 2023-06-06 08:21:31
1 fastbeats [AAA] [FC] [SR] 587,450 379 - 0 - 0 - 0 - 0 379 2023-06-06 08:21:15
1 Super Spy Hunter [AAA] [FC] [SR] 426,250 275 - 0 - 0 - 0 - 0 275 2023-06-06 08:20:34
1 Norfolk Gals [AAA] [FC] [SR] 159,650 103 - 0 - 0 - 0 - 0 103 2023-06-06 08:19:49
1 Yoshi's Cookie [AAA] [FC] [SR] 381,300 246 - 0 - 0 - 0 - 0 246 2023-06-06 08:19:10
1 Happy Birthday [AAA] [FC] [SR] 195,300 126 - 0 - 0 - 0 - 0 126 2023-06-06 08:18:31
5,264 Pita [FC] 163,900 106 - 0 - 0 - 0 - 20 106 2023-06-06 08:18:01
34,483 Pita 47,595 30 - 1 - 0 - 0 - 9 31 2023-06-06 08:17:31
22,868 Pita 109,375 70 - 1 - 0 - 0 - 20 71 2023-06-06 08:17:22
30,603 Pita 80,165 51 - 1 - 0 - 0 - 8 52 2023-06-06 08:17:03
1 Pita [AAA] [FC] [PB] 164,300 106 - 0 - 0 - 0 - 0 106 2023-06-06 08:15:28
37,571 Pita [SR] 24,800 16 - 0 - 0 - 0 - 0 16 2023-06-06 08:14:52
1 Excite Bike [Oni] [AAA] [FC] [PB] 223,200 144 - 0 - 0 - 0 - 0 144 2023-06-06 08:14:16
72 Excite Bike [Oni] 221,340 143 - 0 - 0 - 1 - 0 143 2023-06-06 08:14:04
156 Excite Bike [Oni] 196,575 126 - 1 - 0 - 0 - 0 127 2023-06-06 08:13:53
159 Excite Bike [Oni] 143,715 124 - 3 - 0 - 1 - 0 75 2023-06-06 08:13:44
59 Excite Bike [Oni] [FC] [SR] 223,180 144 - 0 - 0 - 0 - 1 144 2023-06-06 08:13:33
1 Excite Bike [Heavy] [AAA] [FC] [SR] 162,750 105 - 0 - 0 - 0 - 0 105 2023-06-06 08:13:17
129,979 Excite Bike [Light] 2,895 0 - 2 - 13 - 17 - 5 7 2023-06-06 08:12:51
119,006 Excite Bike [Light] 11,650 0 - 5 - 5 - 0 - 0 10 2023-06-06 08:12:41
118,086 Excite Bike [Light] 13,845 3 - 4 - 11 - 11 - 5 14 2023-06-06 08:12:37
129,979 Excite Bike [Light] 1,355 0 - 5 - 6 - 17 - 4 5 2023-06-06 08:12:28
120,041 Excite Bike [Light] 6,265 0 - 5 - 4 - 1 - 1 5 2023-06-06 08:12:19
129,819 Excite Bike [Light] 1,800 0 - 0 - 2 - 1 - 0 2 2023-06-06 08:12:14
117,858 Excite Bike [Light] 12,830 0 - 7 - 15 - 6 - 3 12 2023-06-06 08:12:12
119,526 Excite Bike [Light] 8,045 2 - 2 - 7 - 3 - 3 7 2023-06-06 08:12:03
129,408 Excite Bike [Light] 560 1 - 5 - 5 - 18 - 3 4 2023-06-06 08:11:57
124,987 Excite Bike [Light] 3,755 1 - 7 - 8 - 16 - 10 6 2023-06-06 08:11:47
121,387 Excite Bike [Light] 10,190 0 - 5 - 7 - 5 - 1 10 2023-06-06 08:11:32
121,702 Excite Bike [Light] 5,900 1 - 2 - 2 - 1 - 0 5 2023-06-06 08:11:25
117,606 Excite Bike [Light] 8,580 1 - 6 - 0 - 2 - 0 7 2023-06-06 08:11:21
84,385 Excite Bike [Light] 35,440 7 - 14 - 8 - 2 - 4 28 2023-06-06 08:11:16
114,026 Excite Bike [Light] 9,805 4 - 2 - 1 - 0 - 0 7 2023-06-06 08:11:06
125,912 Excite Bike [Light] 3,295 0 - 2 - 1 - 1 - 0 3 2023-06-06 08:10:56
129,979 Excite Bike [Light] 1,250 0 - 2 - 0 - 4 - 3 2 2023-06-06 08:10:53
124,599 Excite Bike [Light] 765 1 - 7 - 0 - 15 - 3 3 2023-06-06 08:10:47
124,599 Excite Bike [Light] 1,495 2 - 5 - 0 - 16 - 1 4 2023-06-06 08:10:39
127,110 Excite Bike [Light] 2,645 1 - 3 - 0 - 5 - 9 3 2023-06-06 08:10:29
105,616 Excite Bike [Light] 16,520 4 - 16 - 0 - 12 - 18 14 2023-06-06 08:10:23
129,819 Excite Bike [Light] 810 1 - 2 - 0 - 7 - 6 2 2023-06-06 08:09:54
122,715 Excite Bike [Light] 4,390 3 - 0 - 0 - 0 - 13 3 2023-06-06 08:09:49
112,071 Excite Bike [Light] 13,420 0 - 20 - 0 - 12 - 18 12 2023-06-06 08:09:39
129,979 Excite Bike [Light] 0 0 - 1 - 0 - 9 - 2 1 2023-06-06 08:09:29
129,979 Excite Bike [Light] 0 0 - 1 - 0 - 9 - 2 1 2023-06-06 08:09:24
118,509 Excite Bike [Light] 3,230 0 - 14 - 0 - 18 - 2 5 2023-06-06 08:09:17
126,695 Excite Bike [Light] 1,220 2 - 2 - 0 - 11 - 1 3 2023-06-06 08:09:07
129,819 Excite Bike [Light] 0 1 - 3 - 0 - 11 - 3 1 2023-06-06 08:09:00
123,458 Excite Bike [Light] 1,270 2 - 4 - 0 - 9 - 7 2 2023-06-06 08:08:49
129,979 Excite Bike [Light] 305 0 - 5 - 0 - 13 - 2 3 2023-06-06 08:08:43
121,702 Excite Bike [Light] 3,615 0 - 11 - 2 - 14 - 9 5 2023-06-06 08:08:35
129,979 Excite Bike [Light] 825 0 - 3 - 0 - 6 - 7 2 2023-06-06 08:08:25
121,387 Excite Bike [Light] 5,140 2 - 5 - 1 - 7 - 11 5 2023-06-06 08:08:17
129,979 Excite Bike [Light] 0 0 - 0 - 0 - 4 - 6 0 2023-06-06 08:08:10
129,408 Excite Bike [Light] 1,290 1 - 4 - 0 - 14 - 1 4 2023-06-06 08:08:06
109,570 Excite Bike [Light] 8,675 7 - 5 - 0 - 11 - 7 7 2023-06-06 08:07:57
1 Rengoku-Purgatorium- v2 [AAA] [FC] [PB] 3,507,650 2,263 - 0 - 0 - 0 - 0 2,263 2023-06-06 06:33:56
120 Rengoku-Purgatorium- v2 179,800 116 - 0 - 0 - 0 - 0 116 2023-06-06 06:31:24
118 Rengoku-Purgatorium- v2 922,415 603 - 1 - 0 - 21 - 0 597 2023-06-06 06:31:06
95 Rengoku-Purgatorium- v2 3,059,150 1,976 - 2 - 0 - 20 - 0 1,978 2023-06-06 06:29:29
8 Rengoku-Purgatorium- v2 [FC] [PB] 3,507,375 2,262 - 1 - 0 - 0 - 0 2,263 2023-06-06 06:26:04
120 Rengoku-Purgatorium- v2 388,775 254 - 1 - 0 - 20 - 0 255 2023-06-06 06:23:35
120 Rengoku-Purgatorium- v2 1,495 1 - 1 - 0 - 1 - 1 1 2023-06-06 06:23:04
10 Rengoku-Purgatorium- v2 [PB] 3,374,770 2,262 - 0 - 0 - 1 - 1 2,131 2023-06-06 06:21:46
119 Rengoku-Purgatorium- v2 [SR] 116,250 75 - 0 - 0 - 0 - 0 75 2023-06-06 06:18:21
1 Rengoku-Purgatorium- [AAA] [FC] [PB] 2,766,750 1,785 - 0 - 0 - 0 - 0 1,785 2023-06-06 06:15:47
39 Rengoku-Purgatorium- [FC] 2,765,925 1,782 - 3 - 0 - 0 - 0 1,785 2023-06-06 06:13:16
84 Rengoku-Purgatorium- [FC] 2,764,785 1,778 - 7 - 0 - 0 - 2 1,785 2023-06-06 06:10:46
955 Rengoku-Purgatorium- 1,036,640 673 - 0 - 0 - 21 - 0 673 2023-06-06 06:08:18
1,210 Rengoku-Purgatorium- 20,150 13 - 0 - 0 - 0 - 0 13 2023-06-06 06:07:00
39 Rengoku-Purgatorium- [FC] [SR] 2,765,925 1,782 - 3 - 0 - 0 - 0 1,785 2023-06-06 06:05:55
1 HELLBEAT [AAA] [FC] [PB] 781,200 504 - 0 - 0 - 0 - 0 504 2023-06-06 06:02:57
33,580 HELLBEAT 88,455 54 - 12 - 1 - 14 - 13 60 2023-06-06 06:01:54
33,395 HELLBEAT 92,175 57 - 3 - 0 - 0 - 0 60 2023-06-06 06:01:42
33,238 HELLBEAT 95,255 59 - 3 - 0 - 0 - 1 62 2023-06-06 06:01:31
32,947 HELLBEAT 98,925 63 - 1 - 0 - 0 - 0 64 2023-06-06 06:01:20
34,404 HELLBEAT 59,140 43 - 0 - 0 - 21 - 0 42 2023-06-06 06:01:05
413 HELLBEAT [FC] [PB] 780,650 502 - 2 - 0 - 0 - 0 504 2023-06-06 05:59:04
33,029 HELLBEAT [PB] 98,030 62 - 2 - 0 - 2 - 0 64 2023-06-06 05:58:02
33,384 HELLBEAT [SR] 91,830 58 - 2 - 0 - 2 - 0 60 2023-06-06 05:57:50
1 Dazzling Soul [AAA] [FC] [PB] 1,551,550 1,001 - 0 - 0 - 0 - 0 1,001 2023-06-06 05:57:20
22,476 Dazzling Soul [SR] 51,150 33 - 0 - 0 - 0 - 0 33 2023-06-06 05:55:21
1 Spontaneous Hydroxide [AAA] [FC] [PB] 492,900 318 - 0 - 0 - 0 - 0 318 2023-06-06 05:54:50
121,089 Spontaneous Hydroxide [SR] 34,825 20 - 3 - 0 - 0 - 0 23 2023-06-06 05:52:37
1 Dystopia 2077 [AAA] [FC] [SR] 286,750 185 - 0 - 0 - 0 - 0 185 2023-06-05 09:39:38
1 When Petals Fall [AAA] [FC] [PB] 272,800 176 - 0 - 0 - 0 - 0 176 2023-06-05 09:37:51
31 Mdrqnxtagon 2,778,390 1,923 - 22 - 0 - 1 - 0 1,715 2023-06-05 08:59:06
169 Mdrqnxtagon 134,830 87 - 0 - 0 - 0 - 1 87 2023-06-05 08:56:54
22 Mdrqnxtagon [SR] 2,745,315 1,930 - 15 - 0 - 1 - 0 1,680 2023-06-05 08:55:49
593 The Disappearance of Hatsune Miku -Theatrical Version- [SR] 1,608,715 1,771 - 7 - 0 - 4 - 1 634 2023-06-05 08:51:17
1 Serious Shit [AAA] [FC] [PB] 3,586,700 2,314 - 0 - 0 - 0 - 0 2,314 2023-06-05 08:46:51
2,257 Serious Shit [SR] 112,500 66 - 8 - 0 - 0 - 0 74 2023-06-05 08:44:35
1 Break [AAA] [FC] [PB] 2,129,700 1,374 - 0 - 0 - 0 - 0 1,374 2023-06-05 08:43:17
298 Break [SR] 1,321,590 862 - 0 - 0 - 21 - 0 854 2023-06-05 08:41:39
1 The Devil Plays Dance Games [AAA] [FC] [PB] 2,436,600 1,572 - 0 - 0 - 0 - 0 1,572 2023-06-05 08:39:36
1,287 The Devil Plays Dance Games [PB] 759,480 490 - 0 - 0 - 0 - 1 490 2023-06-05 08:37:09
1,441 The Devil Plays Dance Games [PB] 189,720 123 - 0 - 0 - 3 - 0 123 2023-06-05 08:36:11
1,541 The Devil Plays Dance Games 31,000 22 - 0 - 0 - 10 - 0 22 2023-06-05 08:35:50
1,535 The Devil Plays Dance Games [SR] 38,750 25 - 0 - 0 - 0 - 0 25 2023-06-05 08:35:37
142 Enigma [SR] 6,200 4 - 0 - 0 - 0 - 0 4 2023-06-05 08:34:43
1 Tsui no Maihime [AAA] [FC] [SR] 1,990,200 1,284 - 0 - 0 - 0 - 0 1,284 2023-06-05 08:34:21
62 Reparatus+Paradisus 2,903,190 2,109 - 2 - 0 - 1 - 0 1,743 2023-06-05 08:31:10
63 Reparatus+Paradisus 2,180,405 2,109 - 1 - 0 - 22 - 0 1,027 2023-06-05 08:27:23
1 Aragami [AAA] [FC] [PB] 2,335,850 1,507 - 0 - 0 - 0 - 0 1,507 2023-06-05 08:22:38
32 Aragami [FC] [PB] 2,335,575 1,506 - 1 - 0 - 0 - 0 1,507 2023-06-05 08:19:56
57 Aragami [FC] [PB] 2,335,025 1,504 - 3 - 0 - 0 - 0 1,507 2023-06-05 08:17:29
9 The Wises Were Wrong [PB] 2,504,890 1,682 - 4 - 0 - 1 - 0 1,579 2023-06-05 08:14:08
35 The Wises Were Wrong [PB] 2,519,085 1,641 - 39 - 0 - 7 - 1 1,608 2023-06-05 08:10:11
56 The Wises Were Wrong [PB] 2,444,135 1,623 - 57 - 0 - 7 - 1 1,538 2023-06-05 08:06:01
844 The Wises Were Wrong [PB] 404,255 264 - 1 - 0 - 20 - 1 265 2023-06-05 08:02:18
1,192 Aragami [SR] 429,350 281 - 0 - 0 - 20 - 0 281 2023-06-05 06:03:14
677 Exam Cram [Oni] 277,450 183 - 0 - 0 - 20 - 0 183 2023-06-05 05:49:55
1 Swamp Thing [AAA] [FC] [SR] 2,850,450 1,839 - 0 - 0 - 0 - 0 1,839 2023-06-05 05:48:04
1 Angel's Ladder [AAA] [FC] [SR] 2,461,400 1,588 - 0 - 0 - 0 - 0 1,588 2023-06-05 05:43:50
51 brute force [PB] 3,011,400 3,136 - 130 - 4 - 17 - 5 1,256 2023-06-05 05:40:08
172 Death Piano [PB] 3,765,375 2,413 - 37 - 0 - 3 - 1 2,429 2023-06-05 05:36:46
18,722 Death Piano 1,417,075 923 - 15 - 0 - 2 - 4 906 2023-06-05 05:33:50
28 PEACE BREAKER [PB] 3,426,385 3,563 - 53 - 2 - 3 - 1 1,453 2023-06-05 05:31:47
2,494 Magical 8bit Tour 1,684,815 1,109 - 5 - 0 - 21 - 0 1,080 2023-06-05 05:27:16
68 Magical 8bit Tour [FC] [PB] 2,907,700 1,871 - 6 - 0 - 0 - 0 1,877 2023-06-05 05:25:28
2,517 Fushigi Usagi Milk Tei 605,490 400 - 0 - 0 - 21 - 0 392 2023-06-05 05:22:37
2,195 Fushigi Usagi Milk Tei 932,235 599 - 3 - 0 - 0 - 2 602 2023-06-05 05:21:56
4,112 Fushigi Usagi Milk Tei 52,700 34 - 0 - 0 - 0 - 0 34 2023-06-05 05:20:56
4,120 Fushigi Usagi Milk Tei 52,425 33 - 1 - 0 - 0 - 0 34 2023-06-05 05:20:43
24 Mario-chi Survivor [Oni] [PB] 3,209,430 3,086 - 4 - 0 - 3 - 2 1,512 2023-06-05 05:19:51
370 Mario-chi Survivor [Oni] 34,365 20 - 1 - 2 - 0 - 1 23 2023-06-05 05:16:48
1 Delta:for the DELTA (Camellia's "PLANETARY//DUBSTEP" Remix) [AAA] [FC] [PB] 6,488,300 4,186 - 0 - 0 - 0 - 0 4,186 2023-06-05 05:15:13
230 Delta:for the DELTA (Camellia's "PLANETARY//DUBSTEP" Remix) 341,655 220 - 1 - 0 - 2 - 0 221 2023-06-05 05:09:26
253 Delta:for the DELTA (Camellia's "PLANETARY//DUBSTEP" Remix) 31,725 18 - 3 - 0 - 0 - 0 21 2023-06-05 05:08:48
1 DISCHARGE RUSH [AAA] [FC] [PB] 2,924,850 1,887 - 0 - 0 - 0 - 0 1,887 2023-06-05 05:07:53
2,335 DISCHARGE RUSH 54,850 35 - 4 - 2 - 5 - 3 36 2023-06-05 05:05:45
13 VIS::CRACKED [FC] [PB] 3,951,950 2,548 - 2 - 0 - 0 - 0 2,550 2023-06-05 05:05:16
19 VIS::CRACKED [FC] [PB] 3,951,400 2,546 - 4 - 0 - 0 - 0 2,550 2023-06-05 05:01:48
1 _.Pulse [AAA] [FC] [PB] 3,521,600 2,272 - 0 - 0 - 0 - 0 2,272 2023-06-05 04:57:31
109 _.Pulse 3,511,455 2,264 - 3 - 0 - 5 - 1 2,267 2023-06-05 04:55:10
454 _.Pulse 1,699,765 1,097 - 1 - 0 - 6 - 0 1,098 2023-06-05 04:52:58
763 _.Pulse 33,340 23 - 0 - 0 - 1 - 0 21 2023-06-05 04:51:42
30 _.Pulse [FC] [PB] 3,521,325 2,271 - 1 - 0 - 0 - 0 2,272 2023-06-05 04:50:55
6 Reparatus+Paradisus [FC] [PB] 4,102,575 2,646 - 1 - 0 - 0 - 0 2,647 2023-06-05 04:47:14
73 Reparatus+Paradisus 128,650 83 - 0 - 0 - 0 - 0 83 2023-06-05 04:43:58
10 Reparatus+Paradisus 3,819,825 2,639 - 6 - 1 - 1 - 1 2,367 2023-06-05 04:42:22
1 o'er the flood [AAA] [FC] [PB] 2,965,150 1,913 - 0 - 0 - 0 - 0 1,913 2023-06-05 04:39:01
1,818 o'er the flood 9,300 6 - 0 - 0 - 0 - 0 6 2023-06-05 04:35:58
79 o'er the flood [PB] 2,140,270 1,912 - 0 - 0 - 1 - 1 1,089 2023-06-05 04:35:22
1,809 o'er the flood 27,625 17 - 1 - 0 - 0 - 0 18 2023-06-05 04:32:15
1,800 o'er the flood 48,730 25 - 7 - 1 - 0 - 0 33 2023-06-05 04:31:59
1 Classical Insanity [AAA] [FC] [PB] 1,706,550 1,101 - 0 - 0 - 0 - 0 1,101 2023-06-05 04:30:23
39,024 Classical Insanity 40,990 25 - 2 - 0 - 1 - 0 27 2023-06-05 04:28:15
23,422 Classical Insanity 511,970 333 - 1 - 1 - 21 - 0 335 2023-06-05 04:28:07
28,697 Classical Insanity 184,450 123 - 0 - 0 - 20 - 0 123 2023-06-05 04:27:26
45,301 Classical Insanity 15,480 10 - 0 - 0 - 0 - 1 10 2023-06-05 04:27:11
38,559 Classical Insanity 43,400 32 - 0 - 0 - 20 - 0 32 2023-06-05 04:27:05
1 Zephyros [AAA] [FC] [PB] 2,329,650 1,503 - 0 - 0 - 0 - 0 1,503 2023-06-04 17:40:18
971 Zephyros 4,650 3 - 0 - 0 - 0 - 0 3 2023-06-04 17:38:01
973 Zephyros 910 1 - 0 - 0 - 2 - 1 1 2023-06-04 17:37:34
33 Zephyros [FC] [SR] 2,329,630 1,503 - 0 - 0 - 0 - 1 1,503 2023-06-04 08:29:14
1 Vertex BETA [AAA] [FC] [PB] 2,720,250 1,755 - 0 - 0 - 0 - 0 1,755 2023-06-04 08:26:18
19,965 Vertex BETA [PB] 796,150 512 - 2 - 0 - 0 - 0 514 2023-06-04 08:23:13
30,578 Vertex BETA [SR] 28,150 5 - 16 - 0 - 0 - 0 21 2023-06-04 08:22:06
10,282 Get Down [SR] 960,085 619 - 1 - 0 - 2 - 1 620 2023-06-04 08:21:26
1 Release [AAA] [FC] [PB] 261,950 169 - 0 - 0 - 0 - 0 169 2023-06-03 20:07:15
11,069 Release [SR] 145,680 94 - 0 - 0 - 0 - 1 94 2023-06-03 20:04:42
308 Tool-Assisted Speedcore (TQBF Frame Advance RMX) 2,696,790 2,417 - 10 - 0 - 1 - 0 1,365 2023-06-03 02:25:53
270 Blackmagik Blazing 3,381,275 2,179 - 3 - 0 - 0 - 0 2,182 2023-06-03 02:23:08
382 VIS::CRACKED 1,706,430 1,128 - 6 - 0 - 2 - 0 1,085 2023-06-03 02:20:23
924 OWA Raged In Vegas (Fuck Bees) [SR] 1,467,300 945 - 2 - 0 - 0 - 0 947 2023-06-03 02:18:41
388 PhonDrome! [Oni] 873,650 562 - 2 - 0 - 0 - 0 564 2023-06-03 02:17:14
7,605 Rave 7 27,900 18 - 0 - 0 - 0 - 0 18 2023-06-03 02:16:16
1,507 Fushigi Usagi Milk Tei 1,808,025 1,168 - 3 - 0 - 20 - 0 1,171 2023-06-03 02:15:50
2,214 Fushigi Usagi Milk Tei 910,230 588 - 2 - 0 - 12 - 0 590 2023-06-03 02:14:15
14 Fushigi Usagi Milk Tei [FC] [PB] 2,769,575 1,786 - 1 - 0 - 0 - 0 1,787 2023-06-03 02:13:15
2,509 Magical 8bit Tour 1,678,965 1,101 - 7 - 0 - 21 - 0 1,078 2023-06-03 02:10:42
2,462 Magical 8bit Tour 1,642,760 1,119 - 8 - 0 - 19 - 0 1,031 2023-06-03 02:09:08
2,304 Magical 8bit Tour 1,680,040 1,194 - 14 - 0 - 21 - 0 1,026 2023-06-03 02:04:50
161 Magical 8bit Tour [PB] 2,016,345 1,861 - 15 - 0 - 1 - 1 989 2023-06-03 02:03:03
5,228 Magical 8bit Tour 44,950 29 - 0 - 0 - 0 - 0 29 2023-06-03 02:00:30
5,096 Magical 8bit Tour 75,950 49 - 0 - 0 - 0 - 0 49 2023-06-03 02:00:26
5,479 Magical 8bit Tour 17,980 14 - 0 - 0 - 12 - 0 14 2023-06-03 02:00:18
3,349 Magical 8bit Tour [SR] 628,990 410 - 0 - 0 - 21 - 0 410 2023-06-03 01:59:32
1,283 BEER MY FRIEND [SR] 824,270 533 - 0 - 0 - 6 - 1 533 2023-06-03 01:58:30
1 Binary Rendezvous [AAA] [FC] [SR] 1,044,700 674 - 0 - 0 - 0 - 0 674 2023-06-03 01:56:56
1 Ruins [Yamajet] [AAA] [FC] [SR] 1,359,350 877 - 0 - 0 - 0 - 0 877 2023-06-03 01:54:44
7,944 Classical Insanity [FC] 1,633,470 837 - 262 - 2 - 0 - 2 1,101 2023-06-03 01:51:43
51,628 Classical Insanity 2,020 1 - 1 - 1 - 6 - 0 3 2023-06-03 01:49:40
51,518 Classical Insanity 1,930 0 - 2 - 0 - 2 - 0 2 2023-06-03 01:49:37
47,822 Classical Insanity 10,300 5 - 2 - 0 - 0 - 0 7 2023-06-03 01:49:35
47,137 Classical Insanity 10,850 7 - 0 - 0 - 0 - 0 7 2023-06-03 01:49:32
11,001 Classical Insanity 1,039,165 804 - 195 - 0 - 102 - 2 575 2023-06-03 01:48:59
24,860 Classical Insanity 242,560 117 - 138 - 0 - 28 - 3 149 2023-06-03 01:46:57
51,850 Classical Insanity 0 0 - 0 - 0 - 6 - 4 0 2023-06-03 01:46:29
50,133 Classical Insanity 5,225 0 - 9 - 0 - 7 - 4 5 2023-06-03 01:46:26
24,250 Classical Insanity 481,735 161 - 187 - 0 - 20 - 2 348 2023-06-03 01:46:07
33,523 Classical Insanity 118,870 32 - 64 - 0 - 1 - 1 84 2023-06-03 01:45:31
49,767 Classical Insanity 4,865 2 - 7 - 0 - 10 - 3 5 2023-06-03 01:45:21
38,210 Classical Insanity 60,480 7 - 52 - 0 - 15 - 1 47 2023-06-03 01:45:17
16,600 Classical Insanity 1,047,195 520 - 377 - 2 - 79 - 5 682 2023-06-03 01:44:58
28,883 Classical Insanity 212,385 81 - 73 - 2 - 1 - 2 148 2023-06-03 01:43:08
51,850 Classical Insanity 0 0 - 0 - 1 - 4 - 0 1 2023-06-03 01:42:52
50,197 Classical Insanity 6,030 1 - 4 - 0 - 2 - 0 5 2023-06-03 01:42:50
51,393 Classical Insanity 2,275 1 - 0 - 1 - 1 - 1 2 2023-06-03 01:42:47
51,850 Classical Insanity 0 0 - 0 - 1 - 4 - 0 1 2023-06-03 01:42:45
47,822 Classical Insanity 11,300 4 - 4 - 0 - 0 - 0 8 2023-06-03 01:42:42
51,850 Classical Insanity 0 0 - 0 - 1 - 6 - 0 1 2023-06-03 01:42:39
48,482 Classical Insanity 8,750 4 - 2 - 0 - 0 - 0 6 2023-06-03 01:42:35
49,215 Classical Insanity 7,200 3 - 2 - 0 - 0 - 0 5 2023-06-03 01:42:32
50,752 Classical Insanity 1,790 2 - 0 - 0 - 1 - 0 1 2023-06-03 01:42:29
51,333 Classical Insanity 1,895 1 - 1 - 0 - 3 - 0 2 2023-06-03 01:42:27
47,485 Classical Insanity 12,575 4 - 5 - 0 - 0 - 0 9 2023-06-03 01:42:24
44,654 Classical Insanity 17,050 11 - 0 - 0 - 0 - 0 11 2023-06-03 01:42:20
49,702 Classical Insanity 4,615 3 - 1 - 0 - 1 - 0 3 2023-06-03 01:42:17
51,850 Classical Insanity 0 0 - 0 - 1 - 11 - 0 1 2023-06-03 01:42:13
51,850 Classical Insanity 0 1 - 1 - 0 - 12 - 0 1 2023-06-03 01:42:09
36,098 Classical Insanity 97,010 2 - 86 - 0 - 12 - 1 76 2023-06-03 01:42:06
24,333 Classical Insanity 413,120 189 - 100 - 0 - 1 - 1 282 2023-06-03 01:41:54
24,863 Classical Insanity 284,670 166 - 28 - 0 - 1 - 1 186 2023-06-03 01:41:26
9,648 Classical Insanity [FC] 1,608,885 746 - 355 - 0 - 0 - 2 1,101 2023-06-03 01:39:53
21,646 Classical Insanity 739,260 381 - 124 - 0 - 1 - 4 496 2023-06-03 01:37:49
413 Classical Insanity [FC] [SR] 1,706,510 1,101 - 0 - 0 - 0 - 2 1,101 2023-06-03 01:36:20
1 Heffalump Hardcore 2010 [AAA] [FC] [SR] 1,912,700 1,234 - 0 - 0 - 0 - 0 1,234 2023-06-03 01:33:48
1 FFR [AAA] [FC] [SR] 558,000 360 - 0 - 0 - 0 - 0 360 2023-06-03 01:31:09
1 Chaotic Sound [AAA] [FC] [SR] 1,472,500 950 - 0 - 0 - 0 - 0 950 2023-06-03 01:29:36
96 Hello (BPM) 2021 1,844,830 2,301 - 396 - 8 - 48 - 9 485 2023-06-03 01:26:59
1 January's Song [AAA] [FC] [SR] 978,050 631 - 0 - 0 - 0 - 0 631 2023-06-03 01:22:57
1 The Adventures Of Lolo [AAA] [FC] [PB] 812,200 524 - 0 - 0 - 0 - 0 524 2023-06-03 01:14:58
16,804 The Adventures Of Lolo [PB] 97,650 63 - 0 - 0 - 0 - 0 63 2023-06-03 01:14:16
21,046 The Adventures Of Lolo 6,190 7 - 0 - 0 - 2 - 2 3 2023-06-03 01:14:09
17,216 The Adventures Of Lolo [SR] 85,700 52 - 4 - 0 - 0 - 0 56 2023-06-03 01:14:01
1 Synaxis Symphony [AAA] [FC] [SR] 1,094,300 706 - 0 - 0 - 0 - 0 706 2023-06-03 01:13:31
1 Harry Potter Techno Remix [AAA] [FC] [SR] 940,850 607 - 0 - 0 - 0 - 0 607 2023-06-03 01:11:48
21 Fushigi Usagi Milk Tei [FC] 2,769,300 1,785 - 2 - 0 - 0 - 0 1,787 2023-06-03 01:09:30
2,215 Fushigi Usagi Milk Tei 909,025 587 - 3 - 0 - 15 - 0 590 2023-06-03 01:07:05
2,202 Fushigi Usagi Milk Tei 926,350 600 - 2 - 0 - 20 - 0 602 2023-06-03 01:06:10
18 Fushigi Usagi Milk Tei [FC] [PB] 2,769,555 1,786 - 1 - 0 - 0 - 1 1,787 2023-06-03 01:04:17
20 Fushigi Usagi Milk Tei [FC] [PB] 2,769,300 1,785 - 2 - 0 - 0 - 0 1,787 2023-06-03 01:00:23
4,112 Fushigi Usagi Milk Tei 52,700 34 - 0 - 0 - 0 - 0 34 2023-06-03 00:57:57
25 Fushigi Usagi Milk Tei [FC] [PB] 2,769,025 1,784 - 3 - 0 - 0 - 0 1,787 2023-06-03 00:57:14
1,494 Fushigi Usagi Milk Tei 1,824,250 1,176 - 6 - 0 - 20 - 0 1,182 2023-06-03 00:54:47
4,099 Fushigi Usagi Milk Tei 54,250 35 - 0 - 0 - 0 - 0 35 2023-06-03 00:53:12
3,249 Fushigi Usagi Milk Tei 246,450 159 - 0 - 0 - 0 - 0 159 2023-06-03 00:53:02
2,513 Fushigi Usagi Milk Tei 618,770 398 - 2 - 0 - 2 - 3 400 2023-06-03 00:52:36
4,112 Fushigi Usagi Milk Tei 52,700 34 - 0 - 0 - 0 - 0 34 2023-06-03 00:51:52
4,732 Fushigi Usagi Milk Tei 10,850 11 - 0 - 0 - 20 - 0 11 2023-06-03 00:51:44
179 Fushigi Usagi Milk Tei 2,646,525 1,759 - 27 - 0 - 1 - 2 1,672 2023-06-03 00:51:35
3,386 Fushigi Usagi Milk Tei 209,250 135 - 0 - 0 - 0 - 0 135 2023-06-03 00:49:04
3,770 Fushigi Usagi Milk Tei 97,650 63 - 0 - 0 - 0 - 0 63 2023-06-03 00:48:43
2,187 Fushigi Usagi Milk Tei 949,050 613 - 4 - 0 - 20 - 0 617 2023-06-03 00:48:15
2,208 Fushigi Usagi Milk Tei 903,840 595 - 4 - 0 - 21 - 0 582 2023-06-03 00:46:23
1 L9 [AAA] [FC] [PB] 1,669,350 1,077 - 0 - 0 - 0 - 0 1,077 2023-06-03 00:45:16
9,866 L9 [SR] 2,205 1 - 1 - 0 - 2 - 0 2 2023-06-03 00:43:23
265 St. Scarhand [Heavy] 988,625 641 - 1 - 0 - 20 - 0 642 2023-06-03 00:42:57
99 St. Scarhand [Heavy] [FC] 3,360,815 2,158 - 10 - 3 - 0 - 0 2,171 2023-06-03 00:42:00
269 St. Scarhand [Heavy] 947,515 625 - 1 - 0 - 21 - 0 610 2023-06-03 00:38:02
294 St. Scarhand [Heavy] 634,315 461 - 1 - 0 - 21 - 0 387 2023-06-03 00:37:12
1 Horizon [AAA] [FC] [PB] 888,150 573 - 0 - 0 - 0 - 0 573 2023-06-03 00:28:35
54,298 Horizon 33,825 21 - 1 - 0 - 0 - 0 22 2023-06-03 00:26:31
1,153 Horizon [FC] [SR] 888,130 573 - 0 - 0 - 0 - 1 573 2023-06-03 00:26:13
94 PEACE BREAKER 2,411,040 2,679 - 66 - 6 - 25 - 7 927 2023-06-02 05:13:27
148 Rave 7 [FC] [PB] 2,324,680 1,495 - 5 - 1 - 0 - 0 1,501 2023-06-02 05:09:41
7,356 Rave 7 [PB] 49,600 32 - 0 - 0 - 0 - 0 32 2023-06-02 05:07:52
7,425 Rave 7 [SR] 46,675 26 - 5 - 0 - 0 - 0 31 2023-06-02 05:07:40
34 VIS::CRACKED [FC] [PB] 3,950,555 2,543 - 7 - 0 - 0 - 1 2,550 2023-06-02 05:06:37
70 VIS::CRACKED [PB] 2,725,650 2,534 - 13 - 1 - 2 - 3 1,329 2023-06-02 05:03:13
1 hurricanic [AAA] [FC] [PB] 3,532,450 2,279 - 0 - 0 - 0 - 0 2,279 2023-06-02 04:59:34
208 hurricanic [SR] 849,400 549 - 0 - 0 - 5 - 0 549 2023-06-02 04:56:45
88 o'er the flood [PB] 2,893,015 1,911 - 1 - 0 - 1 - 0 1,842 2023-06-02 04:55:33
1,665 o'er the flood [SR] 342,550 221 - 0 - 0 - 0 - 0 221 2023-06-02 04:52:20
1 Final Boss [AAA] [FC] [PB] 1,829,000 1,180 - 0 - 0 - 0 - 0 1,180 2023-06-02 04:51:03
1,069 Final Boss 74,400 48 - 0 - 0 - 0 - 0 48 2023-06-02 04:48:52
1,061 Final Boss [PB] 91,450 59 - 0 - 0 - 0 - 0 59 2023-06-02 04:48:40
1,089 Final Boss [SR] 41,680 25 - 4 - 0 - 7 - 0 29 2023-06-02 04:48:25
1 E-Lectixilent [AAA] [FC] [PB] 2,171,550 1,401 - 0 - 0 - 0 - 0 1,401 2023-06-02 04:47:33
358 E-Lectixilent [SR] 23,730 15 - 4 - 0 - 2 - 0 15 2023-06-02 04:44:55
178 PEACE BREAKER 1,053,855 848 - 1 - 0 - 22 - 0 594 2023-06-01 09:44:31
9 Reparatus+Paradisus [PB] 2,945,440 2,644 - 2 - 0 - 1 - 0 1,491 2023-06-01 09:40:49
9 Reparatus+Paradisus [FC] [PB] 4,101,475 2,642 - 5 - 0 - 0 - 0 2,647 2023-06-01 09:36:14
66 Reparatus+Paradisus 2,277,950 1,472 - 2 - 0 - 20 - 0 1,474 2023-06-01 09:32:25
13 Reparatus+Paradisus [PB] 2,862,295 2,637 - 8 - 1 - 1 - 0 1,410 2023-06-01 09:30:12
74 Reparatus+Paradisus 32,550 21 - 0 - 0 - 0 - 0 21 2023-06-01 09:26:59
1 8bit Adventurer [AAA] [FC] [PB] 2,597,800 1,676 - 0 - 0 - 0 - 0 1,676 2023-06-01 09:26:12
2,714 8bit Adventurer 60,450 43 - 0 - 0 - 20 - 0 43 2023-06-01 09:24:06
2,557 8bit Adventurer [PB] 130,820 86 - 0 - 0 - 8 - 0 86 2023-06-01 09:23:51
2,721 8bit Adventurer 58,900 38 - 0 - 0 - 0 - 0 38 2023-06-01 09:23:34
2,721 8bit Adventurer 58,900 38 - 0 - 0 - 0 - 0 38 2023-06-01 09:23:21
2,747 8bit Adventurer 49,325 31 - 1 - 0 - 0 - 0 32 2023-06-01 09:23:06
2,689 8bit Adventurer [PB] 69,750 45 - 0 - 0 - 0 - 0 45 2023-06-01 09:22:50
403 _.Pulse 2,074,975 1,332 - 13 - 0 - 20 - 0 1,345 2023-06-01 09:22:01
706 _.Pulse 150,350 97 - 0 - 0 - 0 - 0 97 2023-06-01 09:20:33
761 _.Pulse 36,925 23 - 1 - 0 - 0 - 0 24 2023-06-01 09:20:23
322 VIS::CRACKED 2,801,440 1,805 - 8 - 0 - 21 - 0 1,813 2023-06-01 07:12:18
1 Black Lotus [AAA] [FC] [PB] 2,455,200 1,584 - 0 - 0 - 0 - 0 1,584 2023-06-01 07:08:01
172 Black Lotus 548,425 357 - 1 - 0 - 20 - 0 358 2023-06-01 06:59:53
73 Reparatus+Paradisus 275,625 177 - 1 - 0 - 0 - 0 178 2023-06-01 06:51:06
75 Reparatus+Paradisus 2,550 0 - 2 - 0 - 0 - 0 2 2023-06-01 06:50:27
46 Powerflux [PB] 5,375,435 4,050 - 30 - 1 - 1 - 3 3,140 2023-06-01 06:27:39
49 PEACE BREAKER 3,062,640 3,425 - 176 - 2 - 18 - 2 1,136 2023-06-01 06:23:16
252 PEACE BREAKER 82,130 57 - 0 - 0 - 20 - 1 57 2023-06-01 06:19:11
174 brute force 1,132,695 832 - 19 - 0 - 23 - 0 677 2023-06-01 06:17:18
219 brute force 597,495 389 - 0 - 1 - 21 - 0 390 2023-06-01 06:16:17
1 The Last Step [AAA] [FC] [PB] 2,574,550 1,661 - 0 - 0 - 0 - 0 1,661 2023-06-01 06:15:03
331 The Last Step 123,725 83 - 1 - 0 - 20 - 0 84 2023-06-01 06:12:23
313 The Last Step 291,380 188 - 0 - 0 - 0 - 1 188 2023-06-01 06:12:07
197 The Last Step 1,655,160 1,068 - 2 - 0 - 9 - 0 1,070 2023-06-01 06:11:43
313 The Last Step 285,540 187 - 0 - 0 - 1 - 0 183 2023-06-01 06:10:12
242 The Last Step 1,100,225 713 - 1 - 0 - 20 - 0 714 2023-06-01 06:09:50
272 The Last Step 642,040 417 - 0 - 0 - 1 - 0 413 2023-06-01 06:08:45
314 The Last Step 284,715 185 - 1 - 0 - 1 - 0 183 2023-06-01 06:08:05
17 The Last Step [FC] [PB] 2,574,275 1,660 - 1 - 0 - 0 - 0 1,661 2023-06-01 06:07:33
313 The Last Step 291,125 187 - 1 - 0 - 0 - 0 188 2023-06-01 06:05:07
338 The Last Step 20,130 13 - 0 - 0 - 0 - 1 13 2023-06-01 06:04:45
313 The Last Step 291,125 187 - 1 - 0 - 0 - 0 188 2023-06-01 06:04:40
316 The Last Step 284,165 184 - 1 - 0 - 1 - 0 183 2023-06-01 06:04:19
314 The Last Step 288,370 186 - 2 - 0 - 8 - 0 188 2023-06-01 06:03:57
341 The Last Step 17,290 12 - 0 - 0 - 1 - 0 11 2023-06-01 06:03:32
331 The Last Step 133,300 86 - 0 - 0 - 0 - 0 86 2023-05-31 11:40:57
1 Just Hold On [AAA] [FC] [PB] 2,469,150 1,593 - 0 - 0 - 0 - 0 1,593 2023-05-31 11:40:18
101 Just Hold On [FC] [PB] 2,468,875 1,592 - 1 - 0 - 0 - 0 1,593 2023-05-31 11:36:47
1,761 Just Hold On 69,750 45 - 0 - 0 - 0 - 0 45 2023-05-31 11:33:23
1,765 Just Hold On 63,550 41 - 0 - 0 - 0 - 0 41 2023-05-31 11:33:08
1,786 Just Hold On 23,250 15 - 0 - 0 - 0 - 0 15 2023-05-31 11:32:54
1,780 Just Hold On 32,550 21 - 0 - 0 - 0 - 0 21 2023-05-31 11:32:39
1,231 Just Hold On 1,316,730 857 - 2 - 0 - 23 - 2 852 2023-05-31 11:32:25
63 DISCHARGE RUSH [FC] [PB] 2,922,630 1,879 - 8 - 0 - 0 - 1 1,887 2023-05-30 06:00:26
1 Re: End of a Dream [AAA] [FC] [PB] 2,749,700 1,774 - 0 - 0 - 0 - 0 1,774 2023-05-30 05:57:56
1 ++ [AAA] [FC] [PB] 2,816,350 1,817 - 0 - 0 - 0 - 0 1,817 2023-05-30 05:53:43
24 ++ [PB] 2,479,190 1,807 - 7 - 1 - 2 - 1 1,484 2023-05-30 05:51:26
40 ++ [PB] 1,955,255 1,263 - 3 - 0 - 20 - 1 1,266 2023-05-30 05:49:15
47 ++ [SR] 1,272,140 818 - 3 - 1 - 2 - 1 822 2023-05-30 05:47:50
330 Tool-Assisted Speedcore (TQBF Frame Advance RMX) 2,425,140 2,274 - 12 - 0 - 6 - 0 1,173 2023-05-30 05:45:33
5 Delta:for the DELTA (Camellia's "PLANETARY//DUBSTEP" Remix) [FC] [PB] 6,486,925 4,181 - 5 - 0 - 0 - 0 4,186 2023-05-30 05:40:35
225 Delta:for the DELTA (Camellia's "PLANETARY//DUBSTEP" Remix) 338,020 220 - 1 - 1 - 1 - 0 217 2023-05-30 05:34:49
225 Delta:for the DELTA (Camellia's "PLANETARY//DUBSTEP" Remix) 345,100 221 - 2 - 0 - 0 - 0 223 2023-05-30 05:34:16
226 Delta:for the DELTA (Camellia's "PLANETARY//DUBSTEP" Remix) 339,795 219 - 1 - 0 - 3 - 0 220 2023-05-30 05:33:43
183 Delta:for the DELTA (Camellia's "PLANETARY//DUBSTEP" Remix) 1,349,535 874 - 0 - 1 - 20 - 1 875 2023-05-30 05:33:08
137 Delta:for the DELTA (Camellia's "PLANETARY//DUBSTEP" Remix) 2,468,050 1,589 - 4 - 0 - 0 - 0 1,593 2023-05-30 05:30:28
667 Hello (BPM) 2021 754,300 475 - 48 - 0 - 23 - 1 487 2023-05-30 05:27:41
80 Exam Cram [Oni] [FC] 2,435,675 1,564 - 9 - 0 - 0 - 0 1,573 2023-05-30 05:25:24
1 G e n g a o z o [AAA] [FC] [PB] 4,474,850 2,887 - 0 - 0 - 0 - 0 2,887 2023-05-30 05:21:55
1,000 G e n g a o z o 235,600 156 - 0 - 0 - 20 - 0 156 2023-05-30 05:18:46
35 Fushigi Usagi Milk Tei [FC] [PB] 2,768,750 1,783 - 4 - 0 - 0 - 0 1,787 2023-05-30 05:16:50
1 Lawn Wake III [AAA] [FC] [PB] 3,135,650 2,023 - 0 - 0 - 0 - 0 2,023 2023-05-30 05:08:55
1 MANIERA [AAA] [FC] [PB] 2,749,700 1,774 - 0 - 0 - 0 - 0 1,774 2023-05-30 05:04:41
1,689 MANIERA 1,283,125 831 - 1 - 0 - 20 - 0 832 2023-05-30 05:01:56
2,689 MANIERA 7,165 4 - 1 - 0 - 1 - 0 5 2023-05-30 05:00:51
2,548 MANIERA 88,040 61 - 0 - 0 - 21 - 0 61 2023-05-30 04:58:48
1 Shuu no Hazama (Rainshower) [AAA] [FC] [PB] 3,512,300 2,266 - 0 - 0 - 0 - 0 2,266 2023-05-30 04:57:08
160 Shuu no Hazama (Rainshower) 244,590 162 - 0 - 0 - 21 - 0 162 2023-05-30 04:54:40
160 Shuu no Hazama (Rainshower) 451,050 295 - 0 - 0 - 20 - 0 295 2023-05-30 04:54:00
206 Death Piano [PB] 3,734,175 2,386 - 61 - 0 - 6 - 2 2,407 2023-05-30 04:51:26
35,662 Death Piano 354,970 221 - 10 - 0 - 1 - 1 231 2023-05-30 04:48:34
46,406 Death Piano 62,000 40 - 0 - 0 - 0 - 0 40 2023-05-30 04:48:14
1 A Quick Death [AAA] [FC] [PB] 2,559,050 1,651 - 0 - 0 - 0 - 0 1,651 2023-05-30 04:46:02
3,346 A Quick Death 725,125 471 - 1 - 0 - 20 - 0 472 2023-05-30 04:43:30
70 A Quick Death [FC] 2,557,455 1,646 - 4 - 1 - 0 - 0 1,651 2023-05-30 04:42:22
3,285 A Quick Death 777,515 501 - 1 - 0 - 1 - 0 502 2023-05-30 04:39:46
5,012 A Quick Death 79,630 52 - 0 - 0 - 3 - 2 52 2023-05-30 04:38:49
77 A Quick Death 2,434,070 1,646 - 4 - 0 - 1 - 1 1,528 2023-05-30 04:37:57
61 A Quick Death [FC] [PB] 2,557,675 1,646 - 5 - 0 - 0 - 0 1,651 2023-05-30 04:34:57
1 Driveway [Heavy] [AAA] [FC] [PB] 1,653,850 1,067 - 0 - 0 - 0 - 0 1,067 2023-05-30 04:30:47
31,519 Driveway [Heavy] 41,850 27 - 0 - 0 - 0 - 0 27 2023-05-30 04:27:37
29,990 Driveway [Heavy] [PB] 86,800 56 - 0 - 0 - 0 - 0 56 2023-05-30 04:27:21
31,897 Driveway [Heavy] 24,800 16 - 0 - 0 - 0 - 0 16 2023-05-30 04:26:59
32,071 Driveway [Heavy] 20,600 10 - 4 - 0 - 0 - 0 14 2023-05-30 04:26:46
31,174 Driveway [Heavy] [SR] 58,425 27 - 13 - 0 - 0 - 0 40 2023-05-30 04:26:32
1 TWILT [Light] [AAA] [FC] [SR] 243,350 157 - 0 - 0 - 0 - 0 157 2023-05-30 04:23:20
1 Summer Starry Sky [AAA] [FC] [SR] 305,350 197 - 0 - 0 - 0 - 0 197 2023-05-30 04:20:43
1 Awake [AAA] [FC] [PB] 176,700 114 - 0 - 0 - 0 - 0 114 2023-05-29 19:52:04
27 Shuu no Hazama (Rainshower) [SR] 2,403,165 2,264 - 1 - 0 - 1 - 0 1,158 2023-05-29 10:01:20
28 Re: End of a Dream [FC] [SR] 2,749,425 1,773 - 1 - 0 - 0 - 0 1,774 2023-05-29 09:57:39
139 _.Pulse [SR] 2,539,280 2,246 - 24 - 0 - 2 - 0 1,298 2023-05-29 09:43:39
102 MANIERA [FC] [SR] 2,747,810 1,768 - 5 - 1 - 0 - 1 1,774 2023-05-29 08:55:23
47 Lawn Wake III [SR] 2,944,380 2,019 - 2 - 0 - 2 - 0 1,834 2023-05-29 08:52:09
64 Black Lotus [SR] 2,182,535 1,575 - 7 - 0 - 2 - 1 1,315 2023-05-29 08:45:20
76 DISCHARGE RUSH [PB] 2,252,185 1,878 - 7 - 0 - 2 - 1 1,218 2023-05-29 03:16:39
1,577 DISCHARGE RUSH [PB] 453,125 295 - 6 - 1 - 9 - 2 292 2023-05-29 03:14:19
1,664 DISCHARGE RUSH [SR] 368,425 242 - 9 - 2 - 4 - 1 234 2023-05-29 03:13:53
1,223 The Wises Were Wrong [SR] 44,950 29 - 0 - 0 - 0 - 0 29 2023-05-29 03:01:01
1 -+ [AAA] [FC] [PB] 2,028,950 1,309 - 0 - 0 - 0 - 0 1,309 2023-05-29 02:59:03
2,495 -+ 26,075 16 - 1 - 0 - 0 - 0 17 2023-05-29 02:56:56
1,716 -+ 993,000 639 - 2 - 0 - 0 - 0 641 2023-05-29 02:56:42
71 -+ [FC] [PB] 2,028,125 1,306 - 3 - 0 - 0 - 0 1,309 2023-05-29 02:55:05
268 The Last Step [SR] 678,345 440 - 1 - 0 - 3 - 0 437 2023-05-29 02:52:50
1 Cynthia (With Moonlight) [AAA] [FC] [SR] 5,147,550 3,321 - 0 - 0 - 0 - 0 3,321 2023-05-29 02:45:17
1 Yellow Smile [AAA] [FC] [PB] 2,131,250 1,375 - 0 - 0 - 0 - 0 1,375 2023-05-29 02:40:21
1,314 Yellow Smile [PB] 117,490 76 - 0 - 0 - 1 - 0 76 2023-05-29 02:38:20
1,328 Yellow Smile [PB] 74,400 48 - 0 - 0 - 0 - 0 48 2023-05-29 02:38:01
1,338 Yellow Smile 40,300 26 - 0 - 0 - 0 - 0 26 2023-05-29 02:37:49
1,338 Yellow Smile 41,850 27 - 0 - 0 - 0 - 0 27 2023-05-29 02:37:41
1,337 Yellow Smile [PB] 46,500 30 - 0 - 0 - 0 - 0 30 2023-05-29 02:37:29
1,337 Yellow Smile [SR] 44,950 29 - 0 - 0 - 0 - 0 29 2023-05-29 02:37:16
2,199 Fushigi Usagi Milk Tei 910,845 596 - 5 - 0 - 1 - 1 582 2023-05-29 02:36:15
4,391 Fushigi Usagi Milk Tei 29,450 19 - 0 - 0 - 0 - 0 19 2023-05-29 02:35:21
3,624 Fushigi Usagi Milk Tei 123,495 85 - 1 - 0 - 21 - 1 83 2023-05-29 02:34:30
4,391 Fushigi Usagi Milk Tei 29,450 19 - 0 - 0 - 0 - 0 19 2023-05-29 02:34:17
100 Fushigi Usagi Milk Tei [FC] 2,766,000 1,773 - 14 - 0 - 0 - 0 1,787 2023-05-29 02:32:00
4,109 Fushigi Usagi Milk Tei 52,700 34 - 0 - 0 - 0 - 0 34 2023-05-29 02:29:32
4,109 Fushigi Usagi Milk Tei 52,700 34 - 0 - 0 - 0 - 0 34 2023-05-29 02:29:21
2,201 Fushigi Usagi Milk Tei 907,215 598 - 3 - 0 - 21 - 0 584 2023-05-29 02:29:04
2,794 Fushigi Usagi Milk Tei 429,330 277 - 0 - 0 - 0 - 1 277 2023-05-29 02:28:07
83 Fushigi Usagi Milk Tei [PB] 1,591,185 1,778 - 7 - 0 - 2 - 1 612 2023-05-29 02:27:31
160 Fushigi Usagi Milk Tei [SR] 2,196,390 1,762 - 24 - 0 - 1 - 0 1,221 2023-05-29 02:24:03
1 Ani Mevushal [AAA] [FC] [PB] 2,675,300 1,726 - 0 - 0 - 0 - 0 1,726 2023-05-28 11:15:10
360 Ani Mevushal [PB] 1,247,165 808 - 1 - 0 - 21 - 0 809 2023-05-28 11:11:17
464 Ani Mevushal [SR] 103,575 66 - 1 - 0 - 0 - 0 67 2023-05-28 11:09:37
2,820 8bit Adventurer [SR] 27,900 18 - 0 - 0 - 0 - 0 18 2023-05-28 11:06:44
1 Tuk Tuk Boshi [AAA] [FC] [PB] 2,501,700 1,614 - 0 - 0 - 0 - 0 1,614 2023-05-28 11:06:07
118 Tuk Tuk Boshi [SR] 122,450 79 - 0 - 0 - 0 - 0 79 2023-05-28 11:03:44
1 Didj PVC [AAA] [FC] [SR] 1,212,100 782 - 0 - 0 - 0 - 0 782 2023-05-28 11:02:22
1 Forsaken Neon [AAA] [FC] [PB] 1,007,500 650 - 0 - 0 - 0 - 0 650 2023-05-28 10:59:15
13,171 Forsaken Neon [SR] 68,200 44 - 0 - 0 - 0 - 0 44 2023-05-28 10:57:48
1 TWILT [Heavy] [AAA] [FC] [PB] 1,097,400 708 - 0 - 0 - 0 - 0 708 2023-05-28 10:55:55
705 TWILT [Heavy] 49,600 32 - 0 - 0 - 0 - 0 32 2023-05-28 10:54:22
693 TWILT [Heavy] [SR] 99,200 64 - 0 - 0 - 0 - 0 64 2023-05-28 10:54:14
1 Senki Dala [AAA] [FC] [SR] 303,800 196 - 0 - 0 - 0 - 0 196 2023-05-28 10:51:43
1 Lavender Town (Fairytale Remix) [AAA] [FC] [SR] 220,100 142 - 0 - 0 - 0 - 0 142 2023-05-28 10:49:07
1 Horsepower (Remix) [AAA] [FC] [PB] 227,850 147 - 0 - 0 - 0 - 0 147 2023-05-28 10:47:29
1,562 Horsepower (Remix) 18,250 12 - 0 - 0 - 1 - 2 12 2023-05-28 10:45:55
1,526 Horsepower (Remix) 43,105 27 - 1 - 0 - 0 - 1 28 2023-05-28 10:45:39
1 Form [Part 2] [AAA] [FC] [SR] 151,900 98 - 0 - 0 - 0 - 0 98 2023-05-28 10:44:55
1 Trip to the Moon (Club Remix) v2 [AAA] [FC] [SR] 982,700 634 - 0 - 0 - 0 - 0 634 2023-05-28 10:42:01
1 Trip to the Moon (Club Remix) [AAA] [FC] [SR] 221,650 143 - 0 - 0 - 0 - 0 143 2023-05-28 10:40:09
1 The Crystal Tower [AAA] [FC] [PB] 213,900 138 - 0 - 0 - 0 - 0 138 2023-05-28 10:36:26
4,643 The Crystal Tower [SR] 4,375 2 - 1 - 0 - 0 - 0 3 2023-05-28 10:35:24
320 VIS::CRACKED 2,641,970 1,800 - 21 - 1 - 22 - 2 1,653 2023-05-28 09:11:27
165 PEACE BREAKER 1,369,355 912 - 9 - 0 - 12 - 0 869 2023-05-28 09:08:50
1 [line:theta] [AAA] [FC] [PB] 2,535,800 1,636 - 0 - 0 - 0 - 0 1,636 2023-05-28 09:06:40
620 [line:theta] 129,890 85 - 0 - 0 - 6 - 0 85 2023-05-28 09:04:40
21 [line:theta] [FC] [PB] 2,535,525 1,635 - 1 - 0 - 0 - 0 1,636 2023-05-28 09:04:02
444 [line:theta] 1,110,765 720 - 1 - 0 - 21 - 0 721 2023-05-28 09:02:01
59 [line:theta] [PB] 2,062,600 1,631 - 3 - 1 - 1 - 1 1,165 2023-05-28 09:00:51
508 [line:theta] [PB] 816,880 530 - 0 - 0 - 2 - 0 526 2023-05-28 08:58:53
626 [line:theta] [PB] 112,255 72 - 1 - 0 - 2 - 0 73 2023-05-28 08:58:09
1 GOODBOUNCE [AAA] [FC] [PB] 2,749,700 1,774 - 0 - 0 - 0 - 0 1,774 2023-05-28 08:56:29
227 GOODBOUNCE 58,900 38 - 0 - 0 - 0 - 0 38 2023-05-28 08:54:12
229 GOODBOUNCE 41,850 27 - 0 - 0 - 0 - 0 27 2023-05-28 08:54:01
229 GOODBOUNCE 41,850 27 - 0 - 0 - 0 - 0 27 2023-05-28 08:53:48
1 Celestial Horizon v2 [AAA] [FC] [PB] 2,097,150 1,353 - 0 - 0 - 0 - 0 1,353 2023-05-28 08:53:03
49 Celestial Horizon v2 [FC] [PB] 2,096,875 1,352 - 1 - 0 - 0 - 0 1,353 2023-05-28 08:49:58
768 Celestial Horizon v2 38,750 25 - 0 - 0 - 0 - 0 25 2023-05-28 08:47:31
768 Celestial Horizon v2 34,790 13 - 9 - 3 - 0 - 0 25 2023-05-28 08:47:19
1 Digital Atmosphere [AAA] [FC] [PB] 310,000 200 - 0 - 0 - 0 - 0 200 2023-05-28 08:46:02
8,924 Digital Atmosphere [SR] 2,825 1 - 1 - 0 - 0 - 0 2 2023-05-28 08:43:52
1 The Limit Does Not Exist [AAA] [FC] [PB] 2,493,950 1,609 - 0 - 0 - 0 - 0 1,609 2023-05-28 01:35:14
69 VIS::CRACKED [PB] 3,046,360 2,532 - 16 - 0 - 2 - 1 1,650 2023-05-28 01:24:21
118 G e n g a o z o 3,513,185 2,859 - 23 - 0 - 5 - 2 1,936 2023-05-28 01:20:22
123 Delta:for the DELTA (Camellia's "PLANETARY//DUBSTEP" Remix) 2,575,955 1,895 - 14 - 3 - 1 - 0 1,530 2023-05-28 01:16:31
243 Delta:for the DELTA (Camellia's "PLANETARY//DUBSTEP" Remix) 110,030 74 - 0 - 0 - 15 - 1 74 2023-05-28 01:13:46
247 Delta:for the DELTA (Camellia's "PLANETARY//DUBSTEP" Remix) 32,220 21 - 0 - 0 - 1 - 1 21 2023-05-28 01:13:30
247 Delta:for the DELTA (Camellia's "PLANETARY//DUBSTEP" Remix) 29,430 19 - 0 - 0 - 0 - 1 19 2023-05-28 01:13:20
247 Delta:for the DELTA (Camellia's "PLANETARY//DUBSTEP" Remix) 27,340 23 - 0 - 0 - 1 - 0 15 2023-05-28 01:13:05
222 Delta:for the DELTA (Camellia's "PLANETARY//DUBSTEP" Remix) 482,030 311 - 0 - 0 - 0 - 1 311 2023-05-28 01:12:55
250 Delta:for the DELTA (Camellia's "PLANETARY//DUBSTEP" Remix) 10,230 8 - 0 - 0 - 7 - 0 8 2023-05-28 01:12:05
65 Blackmagik Blazing 3,365,390 3,890 - 52 - 2 - 8 - 2 1,214 2023-05-28 01:11:17
559 Blackmagik Blazing 243,350 161 - 0 - 0 - 20 - 0 161 2023-05-28 01:06:42
13 Delta:for the DELTA (Camellia's "PLANETARY//DUBSTEP" Remix) [SR] 4,803,845 4,165 - 16 - 1 - 4 - 6 2,510 2023-05-28 01:05:53
229 GOODBOUNCE 41,230 27 - 0 - 0 - 2 - 0 27 2023-05-28 00:58:28
229 GOODBOUNCE 20,150 13 - 0 - 0 - 0 - 0 13 2023-05-28 00:58:20
1 A Quick Death v2 [AAA] [FC] [SR] 2,081,650 1,343 - 0 - 0 - 0 - 0 1,343 2023-05-28 00:57:06
72 A Quick Death [FC] [PB] 2,557,360 1,645 - 6 - 0 - 0 - 2 1,651 2023-05-28 00:53:59
5,195 A Quick Death 37,200 24 - 0 - 0 - 0 - 0 24 2023-05-28 00:51:12
171 A Quick Death [PB] 1,612,770 1,637 - 11 - 1 - 2 - 2 710 2023-05-28 00:50:32
5,338 A Quick Death [PB] 9,300 6 - 0 - 0 - 0 - 0 6 2023-05-28 00:47:56
5,344 A Quick Death [SR] 9,025 5 - 1 - 0 - 0 - 0 6 2023-05-28 00:47:46
1 Perfect Cherry Storm [AAA] [FC] [PB] 1,661,600 1,072 - 0 - 0 - 0 - 0 1,072 2023-05-28 00:46:56
7,963 Perfect Cherry Storm 15,480 10 - 0 - 0 - 0 - 1 10 2023-05-28 00:45:11
7,979 Perfect Cherry Storm 7,750 5 - 0 - 0 - 0 - 0 5 2023-05-28 00:45:00
7,841 Perfect Cherry Storm [PB] 41,850 27 - 0 - 0 - 0 - 0 27 2023-05-28 00:44:44
7,994 Perfect Cherry Storm [SR] 2,805 1 - 1 - 0 - 0 - 1 2 2023-05-28 00:44:28
84 GOODBOUNCE [SR] 2,046,875 1,766 - 7 - 0 - 1 - 2 1,074 2023-05-28 00:43:58
1 ENERGY SYNERGY MATRIX [AAA] [FC] [PB] 2,635,000 1,700 - 0 - 0 - 0 - 0 1,700 2023-05-28 00:40:26
691 ENERGY SYNERGY MATRIX [SR] 35,340 27 - 0 - 0 - 21 - 0 27 2023-05-28 00:38:17
92 Tool-Assisted Speedcore (TQBF Frame Advance RMX) 2,838,490 3,452 - 79 - 5 - 13 - 4 922 2023-05-21 09:07:10
30 Mario-chi Survivor [Oni] [PB] 3,833,750 3,072 - 20 - 0 - 1 - 2 2,139 2023-05-21 09:01:50
169 Exam Cram [Oni] 2,139,340 1,481 - 86 - 0 - 6 - 0 1,303 2023-05-21 08:58:25
46 Boxel Adventure 1,922,610 1,753 - 4 - 0 - 2 - 1 958 2023-05-21 08:56:20
1 Double Helix [AAA] [FC] [PB] 3,425,500 2,210 - 0 - 0 - 0 - 0 2,210 2023-05-21 08:53:41
1 GOODTEK [AAA] [FC] [PB] 2,776,050 1,791 - 0 - 0 - 0 - 0 1,791 2023-05-21 08:50:26
299 GOODTEK 63,550 41 - 0 - 0 - 0 - 0 41 2023-05-21 08:48:14
299 GOODTEK 32,550 21 - 0 - 0 - 0 - 0 21 2023-05-21 08:47:59
299 GOODTEK 35,340 23 - 0 - 0 - 1 - 0 23 2023-05-21 08:47:50
74 Celestial Horizon v2 [FC] [PB] 2,095,500 1,347 - 6 - 0 - 0 - 0 1,353 2023-05-21 08:47:10
759 Celestial Horizon v2 [SR] 74,070 48 - 0 - 0 - 1 - 1 48 2023-05-21 08:44:45
1 Armageddon [LeaF] [AAA] [FC] [PB] 2,963,600 1,912 - 0 - 0 - 0 - 0 1,912 2023-05-12 04:46:24
635 Armageddon [LeaF] 231,440 163 - 4 - 0 - 1 - 0 141 2023-05-12 04:43:58
630 Armageddon [LeaF] 320,335 207 - 3 - 0 - 14 - 0 210 2023-05-12 04:43:30
65 GOODTEK [SR] 2,373,190 1,790 - 0 - 0 - 1 - 0 1,389 2023-05-12 04:42:36
640 [line:theta] [SR] 24,800 20 - 0 - 0 - 20 - 0 20 2023-05-12 04:39:52
223 -+ [PB] 1,631,730 1,299 - 7 - 1 - 2 - 4 916 2023-05-12 04:39:22
1 Entrance [Deemo Cut] [AAA] [FC] [PB] 1,695,700 1,094 - 0 - 0 - 0 - 0 1,094 2023-05-12 04:36:32
300 -+ [PB] 1,465,040 1,286 - 22 - 0 - 1 - 0 752 2023-04-09 07:59:19
72 Entrance [Deemo Cut] [SR] 1,643,015 1,090 - 3 - 0 - 1 - 0 1,043 2023-04-09 07:55:02
1 Katharsis [AAA] [FC] [PB] 1,737,550 1,121 - 0 - 0 - 0 - 0 1,121 2023-04-09 07:52:39
4,524 Katharsis [PB] 117,250 74 - 2 - 0 - 0 - 0 76 2023-04-09 07:50:13
4,856 Katharsis 26,350 17 - 0 - 0 - 0 - 0 17 2023-04-09 07:49:54
4,853 Katharsis 29,175 18 - 1 - 0 - 0 - 0 19 2023-04-09 07:49:38
4,851 Katharsis [PB] 32,275 20 - 1 - 0 - 0 - 0 21 2023-04-09 07:49:30
4,853 Katharsis [SR] 28,900 17 - 2 - 0 - 0 - 0 19 2023-04-09 07:49:19
58 The Limit Does Not Exist [FC] [SR] 2,493,675 1,608 - 1 - 0 - 0 - 0 1,609 2022-12-02 04:55:13
31 Mario-chi Survivor [Oni] [PB] 3,327,000 3,065 - 25 - 1 - 2 - 3 1,635 2022-12-02 04:52:53
32 PEACE BREAKER [PB] 2,903,360 3,477 - 124 - 6 - 14 - 4 961 2022-12-02 04:48:59
156 PEACE BREAKER 149,540 106 - 2 - 0 - 1 - 0 91 2022-12-02 04:45:22
157 PEACE BREAKER 17,775 9 - 3 - 0 - 0 - 0 12 2022-12-02 04:45:01
257 Death Piano [SR] 2,043,515 2,355 - 76 - 1 - 21 - 9 734 2022-12-02 04:44:27
12 Reparatus+Paradisus [PB] 3,551,795 2,635 - 9 - 0 - 3 - 0 2,101 2022-12-02 04:41:11
69 Reparatus+Paradisus 32,550 21 - 0 - 0 - 0 - 0 21 2022-12-02 04:38:03
68 Reparatus+Paradisus 46,500 30 - 0 - 0 - 0 - 0 30 2022-12-02 04:37:55
68 Reparatus+Paradisus 383,550 239 - 14 - 0 - 15 - 5 253 2022-12-02 04:36:57
66 Reparatus+Paradisus [PB] 394,975 254 - 1 - 0 - 0 - 0 255 2022-12-02 04:36:20
69 Reparatus+Paradisus 27,900 18 - 0 - 0 - 0 - 0 18 2022-12-02 04:35:45
67 Reparatus+Paradisus [PB] 213,900 142 - 0 - 0 - 20 - 0 142 2022-12-02 04:34:31
67 Reparatus+Paradisus [SR] 119,350 81 - 0 - 0 - 20 - 0 81 2022-12-02 04:33:53
65 Double Helix [FC] [PB] 3,424,950 2,208 - 2 - 0 - 0 - 0 2,210 2022-12-02 04:31:52
1,870 Double Helix [PB] 412,715 268 - 3 - 0 - 21 - 0 271 2022-12-02 04:29:03
2,324 Double Helix [SR] 31,000 20 - 0 - 0 - 0 - 0 20 2022-12-02 04:28:13
422 Armageddon [LeaF] 2,029,135 1,462 - 1 - 0 - 4 - 0 1,226 2022-12-02 04:26:01
42 Armageddon [LeaF] [FC] 2,962,775 1,909 - 3 - 0 - 0 - 0 1,912 2022-12-02 04:23:54
1 Pure Ruby [AAA] [FC] [PB] 1,891,000 1,220 - 0 - 0 - 0 - 0 1,220 2022-12-02 04:20:31
2,383 Pure Ruby 785,980 512 - 0 - 0 - 2 - 0 505 2022-12-02 04:18:21
2,567 Pure Ruby 523,625 341 - 1 - 0 - 20 - 0 342 2022-12-02 04:17:18
2,584 Pure Ruby 494,175 318 - 1 - 0 - 0 - 0 319 2022-12-02 04:16:27
182 Pure Ruby [FC] 1,890,725 1,219 - 1 - 0 - 0 - 0 1,220 2022-12-02 04:15:39
182 Pure Ruby [FC] [PB] 1,890,725 1,219 - 1 - 0 - 0 - 0 1,220 2022-12-02 04:13:27
2,670 Pure Ruby [PB] 243,350 157 - 0 - 0 - 0 - 0 157 2022-12-02 04:11:14
2,730 Pure Ruby 86,800 56 - 0 - 0 - 0 - 0 56 2022-12-02 04:10:44
2,722 Pure Ruby 94,550 61 - 0 - 0 - 0 - 0 61 2022-12-02 04:10:28
2,686 Pure Ruby 181,350 117 - 0 - 0 - 0 - 0 117 2022-12-02 04:10:06
2,684 Pure Ruby [PB] 185,085 119 - 1 - 0 - 2 - 1 120 2022-12-02 04:09:33
2,689 Pure Ruby [PB] 174,875 112 - 1 - 0 - 0 - 0 113 2022-12-02 04:09:11
2,708 Pure Ruby [PB] 127,100 82 - 0 - 0 - 0 - 0 82 2022-12-02 04:08:49
2,735 Pure Ruby 75,950 49 - 0 - 0 - 0 - 0 49 2022-12-02 04:08:30
2,739 Pure Ruby 68,200 44 - 0 - 0 - 0 - 0 44 2022-12-02 04:08:12
2,757 Pure Ruby 46,500 30 - 0 - 0 - 0 - 0 30 2022-12-02 04:07:57
2,751 Pure Ruby 50,325 30 - 3 - 0 - 0 - 0 33 2022-12-02 04:07:43
2,779 Pure Ruby 19,530 8 - 16 - 0 - 7 - 5 13 2022-12-02 04:07:23
2,726 Pure Ruby [PB] 89,695 56 - 3 - 0 - 3 - 0 59 2022-12-02 04:07:08
2,812 Pure Ruby [SR] 0 2 - 4 - 0 - 14 - 3 2 2022-12-02 04:06:47
18 Armageddon [LeaF] [FC] [PB] 2,963,325 1,911 - 1 - 0 - 0 - 0 1,912 2022-09-22 23:58:44
577 Armageddon [LeaF] [SR] 66,375 44 - 1 - 0 - 10 - 0 45 2022-09-22 23:56:18
1 Calamity Fortune [AAA] [FC] [PB] 2,458,300 1,586 - 0 - 0 - 0 - 0 1,586 2022-09-22 23:54:00
971 Calamity Fortune [PB] 2,303,025 1,489 - 1 - 0 - 20 - 0 1,490 2022-09-22 23:50:48
1,634 Calamity Fortune [SR] 836,690 544 - 0 - 0 - 21 - 0 544 2022-09-22 23:47:41
1 MEPHISTO [AAA] [FC] [SR] 2,526,500 1,630 - 0 - 0 - 0 - 0 1,630 2022-09-22 23:43:40
1 Paraclete [Oni] [AAA] [FC] [SR] 2,772,950 1,789 - 0 - 0 - 0 - 0 1,789 2022-09-22 23:01:14
1 Wizdomiot [AAA] [FC] [PB] 3,149,600 2,032 - 0 - 0 - 0 - 0 2,032 2022-09-22 22:56:07
1,166 Wizdomiot [SR] 204,600 132 - 0 - 0 - 0 - 0 132 2022-09-22 22:53:32
298 Mario-chi Survivor [Oni] 83,425 53 - 1 - 0 - 0 - 0 54 2022-09-21 22:57:24
303 Mario-chi Survivor [Oni] 53,975 34 - 1 - 0 - 0 - 0 35 2022-09-21 22:57:10
298 Mario-chi Survivor [Oni] 81,875 52 - 1 - 0 - 0 - 0 53 2022-09-21 22:56:57
303 Mario-chi Survivor [Oni] 53,680 33 - 2 - 0 - 0 - 1 35 2022-09-21 22:56:43
303 Mario-chi Survivor [Oni] 53,975 34 - 1 - 0 - 0 - 0 35 2022-09-21 22:56:30
295 Mario-chi Survivor [Oni] [PB] 109,775 70 - 1 - 0 - 0 - 0 71 2022-09-21 22:56:12
304 Mario-chi Survivor [Oni] [SR] 46,225 29 - 1 - 0 - 0 - 0 30 2022-09-21 22:55:55
18 G e n g a o z o [FC] [SR] 4,474,575 2,886 - 1 - 0 - 0 - 0 2,887 2022-09-21 22:53:31
1 Ant IDM [AAA] [FC] [PB] 2,424,200 1,564 - 0 - 0 - 0 - 0 1,564 2022-09-21 22:49:27
1,033 Ant IDM 49,325 31 - 1 - 0 - 0 - 0 32 2022-09-21 22:46:51
127 Ant IDM [FC] [PB] 2,423,905 1,563 - 1 - 0 - 0 - 1 1,564 2022-09-21 22:46:24
1,031 Ant IDM [SR] 49,600 32 - 0 - 0 - 0 - 0 32 2022-09-21 22:43:42
2,436 -+ [SR] 6,200 4 - 0 - 0 - 0 - 0 4 2022-09-21 22:43:16
1 Diamante Spectrasplosion [AAA] [FC] [PB] 1,736,000 1,120 - 0 - 0 - 0 - 0 1,120 2022-09-21 22:43:02
917 Diamante Spectrasplosion [SR] 872,375 566 - 1 - 0 - 20 - 0 567 2022-09-21 22:41:09
28 Exam Cram [Oni] [FC] [PB] 2,437,875 1,572 - 1 - 0 - 0 - 0 1,573 2022-09-21 22:39:34
413 Exam Cram [Oni] 797,975 518 - 1 - 0 - 20 - 0 519 2022-09-21 22:37:41
421 Exam Cram [Oni] 758,950 492 - 2 - 0 - 20 - 0 494 2022-09-21 22:36:52
608 Exam Cram [Oni] 3,100 2 - 0 - 0 - 0 - 0 2 2022-09-21 22:36:05
608 Exam Cram [Oni] 3,100 2 - 0 - 0 - 0 - 0 2 2022-09-21 22:36:01
604 Exam Cram [Oni] 17,050 11 - 0 - 0 - 0 - 0 11 2022-09-21 22:35:57
370 Exam Cram [Oni] 1,301,380 844 - 0 - 0 - 22 - 0 844 2022-09-21 22:35:14
428 Exam Cram [Oni] 730,705 471 - 1 - 0 - 2 - 0 472 2022-09-21 22:34:03
402 Exam Cram [Oni] 859,975 554 - 1 - 0 - 0 - 0 555 2022-09-21 22:33:16
596 Exam Cram [Oni] 38,710 25 - 0 - 0 - 0 - 2 25 2022-09-21 22:32:26
37 Exam Cram [Oni] [FC] [PB] 2,437,600 1,571 - 2 - 0 - 0 - 0 1,573 2022-09-21 22:31:55
601 Exam Cram [Oni] 29,450 19 - 0 - 0 - 0 - 0 19 2022-09-21 22:30:02
65 Exam Cram [Oni] [FC] [PB] 2,435,400 1,563 - 10 - 0 - 0 - 0 1,573 2022-09-21 22:29:37
153 Exam Cram [Oni] [PB] 2,052,295 1,458 - 94 - 3 - 18 - 2 1,230 2022-09-21 22:27:39
592 Exam Cram [Oni] 49,470 35 - 2 - 0 - 1 - 1 30 2022-09-21 22:25:42
1 Baby Don't You Want Me [AAA] [FC] [SR] 235,600 152 - 0 - 0 - 0 - 0 152 2022-09-21 22:25:12
1 5.1.1. (AG Supercool Mix) [AAA] [FC] [SR] 182,900 118 - 0 - 0 - 0 - 0 118 2022-09-21 22:23:14
1 Mantra [AAA] [FC] [PB] 167,400 108 - 0 - 0 - 0 - 0 108 2022-09-21 22:20:17
793 Mantra [PB] 4,650 3 - 0 - 0 - 0 - 0 3 2022-09-21 22:18:38
794 Mantra [SR] 3,100 2 - 0 - 0 - 0 - 0 2 2022-09-21 22:18:27
48 PEACE BREAKER [PB] 2,090,280 1,346 - 8 - 0 - 20 - 1 1,354 2022-09-19 06:22:53
87 PEACE BREAKER [SR] 1,240 1 - 0 - 0 - 1 - 0 1 2022-09-19 06:21:23
1 Lumpiang Shanghai Deluxe [AAA] [FC] [SR] 1,749,950 1,129 - 0 - 0 - 0 - 0 1,129 2022-09-19 06:20:14
13 Blackmagik Blazing [FC] [PB] 6,124,775 3,949 - 3 - 0 - 0 - 0 3,952 2022-09-19 06:11:31
546 Blackmagik Blazing 83,700 54 - 0 - 0 - 0 - 0 54 2022-09-19 06:07:04
293 Blackmagik Blazing 1,302,000 844 - 0 - 0 - 20 - 0 844 2022-09-19 06:05:55
401 Blackmagik Blazing 422,875 276 - 1 - 0 - 20 - 0 277 2022-09-19 06:04:14
357 Blackmagik Blazing 630,575 410 - 1 - 0 - 20 - 0 411 2022-09-19 06:03:01
571 Blackmagik Blazing 18,600 12 - 0 - 0 - 0 - 0 12 2022-09-19 06:02:02
428 Blackmagik Blazing 351,575 226 - 1 - 0 - 0 - 0 227 2022-09-19 06:01:56
239 Blackmagik Blazing 2,190,225 1,426 - 1 - 0 - 1 - 2 1,406 2022-09-19 06:01:31
1 PhonDrome! [Oni] [AAA] [FC] [PB] 2,799,300 1,806 - 0 - 0 - 0 - 0 1,806 2022-09-19 05:56:35
641 PhonDrome! [Oni] 69,750 45 - 0 - 0 - 0 - 0 45 2022-09-19 05:54:15
668 PhonDrome! [Oni] 18,600 12 - 0 - 0 - 0 - 0 12 2022-09-19 05:53:55
1 St. Scarhand [Heavy] [AAA] [FC] [PB] 3,365,050 2,171 - 0 - 0 - 0 - 0 2,171 2022-09-19 05:52:44
250 St. Scarhand [Heavy] 963,825 625 - 1 - 0 - 20 - 0 626 2022-09-19 05:49:38
249 St. Scarhand [Heavy] 964,145 627 - 3 - 0 - 21 - 1 625 2022-09-19 05:48:47
246 St. Scarhand [Heavy] 995,080 642 - 0 - 0 - 0 - 1 642 2022-09-19 05:47:57
287 St. Scarhand [Heavy] 46,500 30 - 0 - 0 - 0 - 0 30 2022-09-19 05:47:04
287 St. Scarhand [Heavy] 34,725 15 - 9 - 0 - 0 - 0 24 2022-09-19 05:46:55
287 St. Scarhand [Heavy] 35,825 19 - 5 - 0 - 0 - 0 24 2022-09-19 05:46:39
286 St. Scarhand [Heavy] 144,150 93 - 0 - 0 - 0 - 0 93 2022-09-19 05:46:33
1 Secret Zombie Room [AAA] [FC] [PB] 568,850 367 - 0 - 0 - 0 - 0 367 2022-09-19 05:46:06
121,953 Secret Zombie Room [SR] 9,300 6 - 0 - 0 - 0 - 0 6 2022-09-19 05:44:30
1 Zanzibar Green [AAA] [FC] [PB] 1,117,550 721 - 0 - 0 - 0 - 0 721 2022-09-19 05:44:04
2,560 Zanzibar Green 34,100 22 - 0 - 0 - 0 - 0 22 2022-09-19 05:42:21
2,455 Zanzibar Green [SR] 177,425 112 - 3 - 0 - 0 - 0 115 2022-09-19 05:42:04
1 Noir (Remixed) [AAA] [FC] [PB] 858,700 554 - 0 - 0 - 0 - 0 554 2022-09-19 05:39:00
15,819 Noir (Remixed) [PB] 265,050 171 - 0 - 0 - 0 - 0 171 2022-09-19 05:37:38
17,656 Noir (Remixed) [PB] 134,575 86 - 1 - 0 - 0 - 0 87 2022-09-19 05:37:09
19,553 Noir (Remixed) [SR] 36,825 18 - 7 - 0 - 0 - 0 25 2022-09-19 05:36:46
1 Matador [AAA] [FC] [PB] 1,593,400 1,028 - 0 - 0 - 0 - 0 1,028 2022-09-19 05:36:06
11,385 Matador [PB] 13,950 9 - 0 - 0 - 0 - 0 9 2022-09-19 05:34:00
11,425 Matador [SR] 12,850 5 - 4 - 0 - 0 - 0 9 2022-09-19 05:33:50
1 Evil Approaches [AAA] [FC] [PB] 1,213,650 783 - 0 - 0 - 0 - 0 783 2022-09-19 05:33:13
20,139 Evil Approaches 26,350 17 - 0 - 0 - 0 - 0 17 2022-09-19 05:30:50
17,991 Evil Approaches [PB] 159,375 102 - 1 - 0 - 0 - 0 103 2022-09-19 05:30:41
19,036 Evil Approaches [SR] 34,905 26 - 13 - 0 - 3 - 2 18 2022-09-19 05:30:17
590 Exam Cram [Oni] 53,920 35 - 0 - 0 - 1 - 1 35 2022-09-18 09:35:11
384 Exam Cram [Oni] [PB] 1,082,715 705 - 1 - 0 - 1 - 0 695 2022-09-18 09:34:55
556 Exam Cram [Oni] [SR] 162,750 105 - 0 - 0 - 0 - 0 105 2022-09-18 09:33:41
1 Press Start [AAA] [FC] [PB] 2,388,550 1,541 - 0 - 0 - 0 - 0 1,541 2022-09-18 09:32:15
1,871 Press Start 298,325 190 - 3 - 0 - 0 - 0 193 2022-09-18 09:29:42
50 Press Start [FC] [PB] 2,388,275 1,540 - 1 - 0 - 0 - 0 1,541 2022-09-18 09:29:16
1,924 Press Start 258,620 173 - 1 - 1 - 6 - 0 165 2022-09-18 09:26:43
1,892 Press Start [PB] 274,690 178 - 4 - 0 - 1 - 0 176 2022-09-18 09:26:21
2,336 Press Start [PB] 38,440 25 - 0 - 0 - 1 - 0 25 2022-09-18 09:25:55
2,397 Press Start [SR] 31,070 19 - 2 - 0 - 3 - 0 21 2022-09-18 09:25:38
1 Galaxy [AAA] [FC] [PB] 1,261,700 814 - 0 - 0 - 0 - 0 814 2022-09-18 09:25:16
6,443 Galaxy [PB] 147,250 95 - 0 - 0 - 0 - 0 95 2022-09-18 09:22:32
6,799 Galaxy [PB] 74,400 48 - 0 - 0 - 0 - 0 48 2022-09-18 09:22:09
6,959 Galaxy [SR] 49,325 31 - 1 - 0 - 0 - 0 32 2022-09-18 09:21:48
1 Insomnia (Acid Paradox remix) [AAA] [FC] [PB] 1,105,150 713 - 0 - 0 - 0 - 0 713 2022-09-18 09:21:27
5,961 Insomnia (Acid Paradox remix) [SR] 14,080 7 - 8 - 0 - 3 - 2 9 2022-09-18 09:19:05
1 Get on the Move [AAA] [FC] [PB] 553,350 357 - 0 - 0 - 0 - 0 357 2022-09-18 09:18:25
72,135 Get on the Move 47,940 32 - 0 - 0 - 2 - 2 31 2022-09-18 09:15:21
71,359 Get on the Move [PB] 81,390 54 - 0 - 0 - 1 - 0 52 2022-09-18 09:14:36
71,707 Get on the Move [PB] 63,790 42 - 0 - 0 - 1 - 0 41 2022-09-18 09:13:51
72,819 Get on the Move [PB] 17,050 11 - 0 - 0 - 0 - 0 11 2022-09-18 09:13:05
73,889 Get on the Move [PB] 3,100 2 - 0 - 0 - 0 - 0 2 2022-09-18 09:12:41
74,355 Get on the Move 1,035 0 - 0 - 1 - 0 - 1 1 2022-09-18 09:12:29
74,059 Get on the Move [SR] 2,605 1 - 0 - 1 - 0 - 0 2 2022-09-18 09:12:17
6 Tool-Assisted Speedcore (TQBF Frame Advance RMX) [SR] 4,131,540 3,546 - 2 - 0 - 1 - 0 2,181 2022-09-17 10:31:16
1 Boxel Adventure [AAA] [FC] [SR] 2,726,450 1,759 - 0 - 0 - 0 - 0 1,759 2022-09-17 10:26:13
44 Hello (BPM) 2021 [PB] 2,107,480 2,521 - 222 - 0 - 10 - 1 663 2022-09-17 10:22:26
209 Powerflux [SR] 4,069,165 3,472 - 11 - 0 - 24 - 1 2,164 2022-09-17 10:19:44
7 PhonDrome! [Oni] [FC] [PB] 2,799,025 1,805 - 1 - 0 - 0 - 0 1,806 2022-09-17 10:15:57
28 PhonDrome! [Oni] [FC] 2,796,825 1,797 - 9 - 0 - 0 - 0 1,806 2022-09-17 10:13:23
274 VIS::CRACKED [PB] 2,591,790 1,719 - 8 - 0 - 6 - 0 1,646 2022-09-17 10:10:19
552 VIS::CRACKED [PB] 40,935 26 - 1 - 0 - 2 - 1 27 2022-09-17 10:08:02
555 VIS::CRACKED [SR] 30,980 20 - 0 - 0 - 0 - 1 20 2022-09-17 10:07:48
109 brute force [SR] 2,148,815 1,382 - 19 - 0 - 21 - 0 1,390 2022-09-17 10:06:53
19 Blackmagik Blazing [FC] [PB] 6,123,400 3,944 - 8 - 0 - 0 - 0 3,952 2022-09-17 10:04:52
323 Blackmagik Blazing 991,430 642 - 2 - 0 - 20 - 1 644 2022-09-17 10:00:20
313 Blackmagik Blazing 1,038,170 672 - 0 - 0 - 11 - 1 672 2022-09-17 09:59:26
393 Blackmagik Blazing 471,330 310 - 0 - 0 - 7 - 0 303 2022-09-17 09:58:33
581 Blackmagik Blazing 4,375 2 - 1 - 0 - 0 - 0 3 2022-09-17 09:58:03
201 Blackmagik Blazing 3,457,860 2,511 - 13 - 1 - 22 - 0 2,080 2022-09-17 09:57:38
565 Blackmagik Blazing 39,475 23 - 3 - 0 - 0 - 0 26 2022-09-17 09:54:30
20 St. Scarhand [Heavy] [FC] [PB] 3,363,950 2,167 - 4 - 0 - 0 - 0 2,171 2022-09-17 09:53:42
243 St. Scarhand [Heavy] 1,278,165 828 - 1 - 0 - 21 - 0 829 2022-09-17 09:50:28
34 St. Scarhand [Heavy] [FC] [PB] 3,363,125 2,164 - 7 - 0 - 0 - 0 2,171 2022-09-17 09:49:03
271 St. Scarhand [Heavy] [PB] 706,160 456 - 2 - 0 - 7 - 1 457 2022-09-17 09:45:57
287 St. Scarhand [Heavy] 10,850 11 - 0 - 0 - 20 - 0 11 2022-09-17 09:45:15
287 St. Scarhand [Heavy] 26,350 17 - 0 - 0 - 0 - 0 17 2022-09-17 09:45:07
283 St. Scarhand [Heavy] 416,640 273 - 0 - 0 - 21 - 0 273 2022-09-17 09:44:53
286 St. Scarhand [Heavy] 164,300 106 - 0 - 0 - 0 - 0 106 2022-09-17 09:44:20
287 St. Scarhand [Heavy] 56,110 38 - 0 - 0 - 9 - 0 38 2022-09-17 09:44:03
276 St. Scarhand [Heavy] [SR] 619,690 404 - 0 - 0 - 21 - 0 404 2022-09-17 09:43:53
1 0 (piano version) [AAA] [FC] [PB] 1,749,950 1,129 - 0 - 0 - 0 - 0 1,129 2022-09-17 09:42:08
11,079 0 (piano version) 29,450 19 - 0 - 0 - 0 - 0 19 2022-09-17 09:39:59
10,550 0 (piano version) 81,840 53 - 0 - 0 - 1 - 0 53 2022-09-17 09:39:50
11,060 0 (piano version) 31,000 20 - 0 - 0 - 0 - 0 20 2022-09-17 09:39:31
10,261 0 (piano version) [SR] 113,460 74 - 0 - 0 - 4 - 0 74 2022-09-17 09:39:21
1 Big Blue [AAA] [FC] [PB] 2,123,500 1,370 - 0 - 0 - 0 - 0 1,370 2022-09-17 09:38:22
119 Big Blue [FC] [PB] 2,123,225 1,369 - 1 - 0 - 0 - 0 1,370 2022-09-17 09:36:14
19,824 Big Blue 27,900 18 - 0 - 0 - 0 - 0 18 2022-09-17 09:34:01
17,877 Big Blue [SR] 74,400 48 - 0 - 0 - 0 - 0 48 2022-09-17 09:33:51
16,637 Be Princess 266,600 172 - 0 - 0 - 0 - 0 172 2022-09-17 09:32:32
16,637 Be Princess 266,600 172 - 0 - 0 - 0 - 0 172 2022-09-17 09:32:06
15,978 Be Princess 310,000 200 - 0 - 0 - 0 - 0 200 2022-09-17 09:31:31
1 Be Princess [AAA] [FC] [PB] 1,404,300 906 - 0 - 0 - 0 - 0 906 2022-09-17 09:30:54
21,516 Be Princess 71,300 50 - 0 - 0 - 20 - 0 50 2022-09-17 09:29:14
18,402 Be Princess [PB] 164,300 106 - 0 - 0 - 0 - 0 106 2022-09-17 09:28:58
22,381 Be Princess 51,150 33 - 0 - 0 - 0 - 0 33 2022-09-17 09:28:39
23,096 Be Princess 27,900 18 - 0 - 0 - 0 - 0 18 2022-09-17 09:28:26
21,878 Be Princess [PB] 63,550 41 - 0 - 0 - 0 - 0 41 2022-09-17 09:28:17
23,909 Be Princess [SR] 16,225 8 - 3 - 0 - 0 - 0 11 2022-09-17 09:28:08
1 analyzed [AAA] [FC] [PB] 1,492,650 963 - 0 - 0 - 0 - 0 963 2022-09-17 09:27:22
2,226 analyzed 14,125 5 - 5 - 0 - 0 - 0 10 2022-09-17 09:25:40
2,195 analyzed 22,975 14 - 1 - 0 - 0 - 0 15 2022-09-17 09:25:29
2,195 analyzed 22,975 14 - 1 - 0 - 0 - 0 15 2022-09-17 09:25:20
2,057 analyzed 99,200 64 - 0 - 0 - 0 - 0 64 2022-09-17 09:25:12
2,046 analyzed [PB] 105,090 72 - 0 - 0 - 21 - 0 72 2022-09-17 09:24:58
2,054 analyzed [PB] 100,130 65 - 0 - 0 - 2 - 0 65 2022-09-17 09:24:44
2,209 analyzed [SR] 15,500 10 - 0 - 0 - 0 - 0 10 2022-09-17 09:24:31
1 Frictional Nevada [AAA] [FC] [PB] 2,053,750 1,325 - 0 - 0 - 0 - 0 1,325 2022-09-17 09:22:39
298 Frictional Nevada [PB] 1,891,890 1,324 - 0 - 0 - 1 - 0 1,164 2022-09-17 09:20:41
9,582 Frictional Nevada [PB] 452,600 292 - 0 - 0 - 0 - 0 292 2022-09-17 09:18:44
12,225 Frictional Nevada [PB] 138,570 92 - 0 - 0 - 13 - 0 92 2022-09-17 09:18:11
14,547 Frictional Nevada [SR] 32,550 21 - 0 - 0 - 0 - 0 21 2022-09-17 09:17:55
1 Sensorium [AAA] [FC] [PB] 2,207,200 1,424 - 0 - 0 - 0 - 0 1,424 2022-09-17 09:16:04
28,698 Sensorium 26,350 17 - 0 - 0 - 0 - 0 17 2022-09-17 09:12:49
19,873 Sensorium 413,265 266 - 1 - 0 - 1 - 0 267 2022-09-17 09:12:27
18,034 Sensorium [PB] 796,140 519 - 0 - 0 - 1 - 0 511 2022-09-17 09:11:41
23,422 Sensorium [PB] 229,125 147 - 1 - 0 - 0 - 0 148 2022-09-17 09:10:20
28,766 Sensorium 24,800 16 - 0 - 0 - 0 - 0 16 2022-09-17 09:09:44
28,766 Sensorium 24,800 16 - 0 - 0 - 0 - 0 16 2022-09-17 09:09:29
29,356 Sensorium 12,300 3 - 6 - 0 - 0 - 0 9 2022-09-17 09:09:19
29,125 Sensorium 17,775 9 - 3 - 0 - 0 - 0 12 2022-09-17 09:09:08
27,539 Sensorium [PB] 67,100 40 - 4 - 0 - 0 - 0 44 2022-09-17 09:08:53
29,543 Sensorium [SR] 4,135 2 - 0 - 1 - 0 - 1 3 2022-09-17 09:08:38
1 Mother Of God [AAA] [FC] [SR] 2,149,850 1,387 - 0 - 0 - 0 - 0 1,387 2022-09-17 09:06:46
1 Maple Leaf Rag [AAA] [FC] [SR] 1,790,250 1,155 - 0 - 0 - 0 - 0 1,155 2022-09-17 09:00:44
24,625 Sun and Stars [SR] 44,305 39 - 9 - 0 - 14 - 14 25 2022-09-17 01:34:30
7,118 When Petals Fall [SR] 160,810 149 - 20 - 2 - 5 - 10 75 2022-09-17 01:33:18
518 Awake [SR] 98,675 91 - 18 - 1 - 4 - 7 45 2022-09-17 01:31:11
1,047 Horsepower (Remix) [SR] 118,325 116 - 23 - 0 - 8 - 16 51 2022-09-17 01:29:05
28,492 After Altair [SR] 60,340 53 - 48 - 0 - 27 - 32 27 2022-09-17 01:27:18
1 LITTLE GOD CH@NNEL [AAA] [FC] [PB] 4,361,700 2,814 - 0 - 0 - 0 - 0 2,814 2022-09-17 01:25:19
5,603 LITTLE GOD CH@NNEL [SR] 946,775 610 - 1 - 0 - 0 - 0 611 2022-09-17 01:20:52
1 INSERT COIN [AAA] [FC] [PB] 1,371,750 885 - 0 - 0 - 0 - 0 885 2022-09-17 01:18:56
661 INSERT COIN [PB] 618,175 398 - 1 - 0 - 0 - 0 399 2022-09-17 01:16:59
801 INSERT COIN [PB] 170,500 110 - 0 - 0 - 0 - 0 110 2022-09-17 01:16:05
841 INSERT COIN [SR] 52,600 29 - 6 - 0 - 0 - 0 35 2022-09-17 01:15:37
1 Euphoria [Antinomie] [AAA] [FC] [PB] 664,950 429 - 0 - 0 - 0 - 0 429 2022-09-17 00:59:48
94,569 Euphoria [Antinomie] 29,450 19 - 0 - 0 - 0 - 0 19 2022-09-17 00:56:38
1,091 Euphoria [Antinomie] [FC] [PB] 664,930 429 - 0 - 0 - 0 - 1 429 2022-09-17 00:56:23
82,110 Euphoria [Antinomie] [PB] 402,980 260 - 0 - 0 - 0 - 1 260 2022-09-17 00:53:18
92,413 Euphoria [Antinomie] [PB] 54,250 35 - 0 - 0 - 0 - 0 35 2022-09-17 00:51:23
95,154 Euphoria [Antinomie] [PB] 18,600 12 - 0 - 0 - 0 - 0 12 2022-09-17 00:51:02
96,444 Euphoria [Antinomie] 5,100 0 - 4 - 0 - 0 - 0 4 2022-09-17 00:50:52
96,223 Euphoria [Antinomie] 5,925 3 - 1 - 0 - 0 - 0 4 2022-09-17 00:50:42
378,070 Euphoria [Antinomie] 0 0 - 0 - 0 - 4 - 4 0 2022-09-17 00:50:35
95,706 Euphoria [Antinomie] [PB] 9,815 4 - 7 - 0 - 1 - 0 6 2022-09-17 00:50:24
96,158 Euphoria [Antinomie] [SR] 6,200 4 - 0 - 0 - 0 - 0 4 2022-09-17 00:50:17
1 I'll Never Forget You [AAA] [FC] [PB] 159,650 103 - 0 - 0 - 0 - 0 103 2022-09-17 00:49:08
2,955 I'll Never Forget You [SR] 4,320 3 - 0 - 0 - 1 - 1 3 2022-09-17 00:47:04
1 Qallupiluk [AAA] [FC] [SR] 156,550 101 - 0 - 0 - 0 - 0 101 2022-09-17 00:42:26
1 Twisted Hide and Seek [AAA] [FC] [SR] 128,650 83 - 0 - 0 - 0 - 0 83 2022-09-17 00:40:32
330 Blackmagik Blazing 892,425 574 - 7 - 0 - 20 - 0 581 2022-09-17 00:38:14
560 Blackmagik Blazing 52,700 34 - 0 - 0 - 0 - 0 34 2022-09-17 00:37:17
1 Gymnopedie No.1 [AAA] [FC] [PB] 145,700 94 - 0 - 0 - 0 - 0 94 2022-09-17 00:36:03
2,064 Gymnopedie No.1 [PB] 106,950 69 - 0 - 0 - 0 - 0 69 2022-09-17 00:34:06
2,213 Gymnopedie No.1 38,750 25 - 0 - 0 - 0 - 0 25 2022-09-17 00:32:15
2,278 Gymnopedie No.1 15,500 10 - 0 - 0 - 0 - 0 10 2022-09-17 00:31:40
2,178 Gymnopedie No.1 [PB] 52,700 34 - 0 - 0 - 0 - 0 34 2022-09-17 00:31:15
2,263 Gymnopedie No.1 21,150 12 - 2 - 0 - 0 - 0 14 2022-09-17 00:30:34
2,319 Gymnopedie No.1 4,935 1 - 1 - 2 - 0 - 0 4 2022-09-17 00:30:09
2,201 Gymnopedie No.1 [PB] 48,225 27 - 5 - 0 - 0 - 0 32 2022-09-17 00:29:53
2,236 Gymnopedie No.1 [SR] 29,450 19 - 0 - 0 - 0 - 0 19 2022-09-17 00:29:10
410 Just Hold On [SR] 1,757,920 1,548 - 42 - 0 - 3 - 5 896 2022-09-16 21:14:05
1 Her Majesty [AAA] [FC] [PB] 1,816,600 1,172 - 0 - 0 - 0 - 0 1,172 2022-09-16 21:03:36
1,672 Her Majesty 351,850 231 - 0 - 0 - 20 - 0 231 2022-09-16 21:00:49
1,769 Her Majesty 141,050 91 - 0 - 0 - 0 - 0 91 2022-09-16 21:00:08
1,804 Her Majesty 72,850 47 - 0 - 0 - 0 - 0 47 2022-09-16 20:59:44
1,793 Her Majesty 86,800 56 - 0 - 0 - 0 - 0 56 2022-09-16 20:59:28
193 Her Majesty 1,317,445 1,170 - 1 - 0 - 1 - 1 674 2022-09-16 20:59:00
188 Her Majesty [PB] 1,303,465 1,170 - 1 - 0 - 1 - 0 660 2022-09-16 20:55:54
1,824 Her Majesty 29,450 23 - 0 - 0 - 20 - 0 23 2022-09-16 20:49:19
1,677 Her Majesty [PB] 331,700 218 - 0 - 0 - 20 - 0 218 2022-09-16 20:49:05
1,773 Her Majesty [SR] 110,365 81 - 2 - 1 - 9 - 0 68 2022-09-16 20:48:20
1 Town Theme 1 (WIP Edition) [AAA] [FC] [SR] 137,950 89 - 0 - 0 - 0 - 0 89 2022-09-16 20:47:32
1 Hana Yuduki [AAA] [FC] [SR] 243,350 157 - 0 - 0 - 0 - 0 157 2022-09-16 20:46:16
1 Dance 2 This [AAA] [FC] [PB] 249,550 161 - 0 - 0 - 0 - 0 161 2022-09-16 20:43:40
190,574 Dance 2 This 6,200 4 - 0 - 0 - 0 - 0 4 2022-09-16 20:42:04
72,484 Dance 2 This [FC] [PB] 246,410 161 - 0 - 0 - 0 - 157 161 2022-09-16 20:40:36
180,111 Dance 2 This [SR] 48,950 33 - 2 - 0 - 1 - 22 31 2022-09-16 20:39:00
1 Fastest Pointer-Finger in the West [AAA] [FC] [PB] 20,150 13 - 0 - 0 - 0 - 0 13 2022-09-16 20:38:07
3,041 Fastest Pointer-Finger in the West [SR] 14,675 7 - 3 - 0 - 0 - 0 10 2022-09-16 20:37:59
1 Excite Bike [Light] [AAA] [FC] 49,600 32 - 0 - 0 - 0 - 0 32 2022-09-16 20:37:36
101,538 Excite Bike [Light] 13,950 9 - 0 - 0 - 0 - 0 9 2022-09-16 20:37:26
111,202 Excite Bike [Light] 9,300 6 - 0 - 0 - 0 - 0 6 2022-09-16 20:37:22
101,538 Excite Bike [Light] 13,950 9 - 0 - 0 - 0 - 0 9 2022-09-16 20:37:18
1 Excite Bike [Light] [AAA] [FC] 49,600 32 - 0 - 0 - 0 - 0 32 2022-09-16 20:37:14
98,260 Excite Bike [Light] 15,500 10 - 0 - 0 - 0 - 0 10 2022-09-16 20:37:04
1 Excite Bike [Light] [AAA] [FC] 49,600 32 - 0 - 0 - 0 - 0 32 2022-09-16 20:36:57
107,958 Excite Bike [Light] 10,850 7 - 0 - 0 - 0 - 0 7 2022-09-16 20:36:47
87,696 Excite Bike [Light] 20,150 13 - 0 - 0 - 0 - 0 13 2022-09-16 20:36:43
114,047 Excite Bike [Light] 7,750 5 - 0 - 0 - 0 - 0 5 2022-09-16 20:36:37
114,047 Excite Bike [Light] 7,750 5 - 0 - 0 - 0 - 0 5 2022-09-16 20:36:33
1 Excite Bike [Light] [AAA] [FC] 49,600 32 - 0 - 0 - 0 - 0 32 2022-09-16 20:36:27
1 Excite Bike [Light] [AAA] [FC] [PB] 49,600 32 - 0 - 0 - 0 - 0 32 2022-09-16 20:36:16
12,812 Excite Bike [Light] [FC] [PB] 49,325 31 - 1 - 0 - 0 - 0 32 2022-09-16 20:35:59
96,910 Excite Bike [Light] [PB] 16,120 11 - 0 - 0 - 3 - 0 11 2022-09-16 20:35:48
101,537 Excite Bike [Light] [SR] 13,950 9 - 0 - 0 - 0 - 0 9 2022-09-16 20:35:33
1 Prelude No. 7 [AAA] [FC] [PB] 141,050 91 - 0 - 0 - 0 - 0 91 2022-09-16 20:35:19
23,193 Prelude No. 7 15,500 10 - 0 - 0 - 0 - 0 10 2022-09-16 20:34:38
22,600 Prelude No. 7 [PB] 27,900 18 - 0 - 0 - 0 - 0 18 2022-09-16 20:34:29
22,992 Prelude No. 7 [PB] 18,600 12 - 0 - 0 - 0 - 0 12 2022-09-16 20:34:13
23,379 Prelude No. 7 [SR] 12,400 8 - 0 - 0 - 0 - 0 8 2022-09-16 20:34:04
1 Form [Part 1] [AAA] [FC] [PB] 55,800 36 - 0 - 0 - 0 - 0 36 2022-09-16 20:33:43
766 Form [Part 1] 3,100 2 - 0 - 0 - 0 - 0 2 2022-09-16 20:32:46
759 Form [Part 1] [PB] 9,300 6 - 0 - 0 - 0 - 0 6 2022-09-16 20:32:35
761 Form [Part 1] [SR] 6,200 4 - 0 - 0 - 0 - 0 4 2022-09-16 20:32:15
42 Blackmagik Blazing [FC] [PB] 6,113,735 3,909 - 43 - 0 - 0 - 2 3,952 2022-09-16 10:27:47
1 Ubiquity [AAA] [FC] [SR] 2,571,450 1,659 - 0 - 0 - 0 - 0 1,659 2022-09-16 10:22:26
1 WE EAT AT FIVE FIVE FIVE (guys) [AAA] [FC] [PB] 1,700,350 1,097 - 0 - 0 - 0 - 0 1,097 2022-09-16 10:20:14
3,000 WE EAT AT FIVE FIVE FIVE (guys) 292,020 190 - 0 - 0 - 8 - 0 190 2022-09-16 10:18:37
2,397 WE EAT AT FIVE FIVE FIVE (guys) 604,535 391 - 1 - 0 - 9 - 0 392 2022-09-16 10:18:20
146 WE EAT AT FIVE FIVE FIVE (guys) [FC] 1,700,075 1,096 - 1 - 0 - 0 - 0 1,097 2022-09-16 10:16:52
2,300 WE EAT AT FIVE FIVE FIVE (guys) 747,790 485 - 2 - 0 - 21 - 0 487 2022-09-16 10:15:21
3,089 WE EAT AT FIVE FIVE FIVE (guys) 237,460 154 - 0 - 0 - 4 - 0 154 2022-09-16 10:14:38
146 WE EAT AT FIVE FIVE FIVE (guys) [FC] [PB] 1,700,075 1,096 - 1 - 0 - 0 - 0 1,097 2022-09-16 10:14:12
3,138 WE EAT AT FIVE FIVE FIVE (guys) 208,010 135 - 0 - 0 - 4 - 0 135 2022-09-16 10:12:37
319 WE EAT AT FIVE FIVE FIVE (guys) [PB] 1,591,680 1,094 - 1 - 1 - 1 - 2 990 2022-09-16 10:12:20
3,637 WE EAT AT FIVE FIVE FIVE (guys) 2,185 1 - 1 - 0 - 2 - 1 2 2022-09-16 10:10:50
2,854 WE EAT AT FIVE FIVE FIVE (guys) [SR] 351,265 229 - 1 - 0 - 16 - 0 230 2022-09-16 10:10:45
1 Malignant Tumor [AAA] [FC] [PB] 2,560,600 1,652 - 0 - 0 - 0 - 0 1,652 2022-09-16 10:09:06
1 2 3 4